Valiant — N/A — position and weather

sailwx.info

Track history (hours):
 
Tides and Currents Weather Stations Pressure Air Temp Water Temp Dewpoint Dewpoint Depression Visibility Wind Speed Wind Dir Waves Ship Positions

Valiant

Last reported at 2018-Jun-23 02:30 UTC. Time now 2018-Jun-23 02:56 UTC.
Position N 46°42' W 092°01'.

Length 11 m.

Type: Port tender. MMSI: 236111176.

Date/timePositionNaut miles runAvg speedWind from/ knotsBaromVisibWave heightAir tempDewpointWater temp
2018-Jun-23 02:30N 46°42' W 092°01'50953668387.7
2018-Jun-23 02:30N 46°51' E 031°58'6077428981.9
2018-Jun-23 02:30N 29°33' W 095°02'10382141.9
2018-Jun-23 02:00N 46°42' W 092°01'50954585484.6
2018-Jun-23 02:00N 46°51' E 031°58'60771041814.9
2018-Jun-23 02:00N 29°33' W 095°02'8233360.4
2018-Jun-23 01:45N 25°44' W 080°09'13835582.1
2018-Jun-23 01:30N 46°42' W 092°01'50953668387.7
2018-Jun-23 01:30N 46°51' E 031°58'607775182.2
2018-Jun-23 01:26N 29°33' W 095°02'8234858.7
2018-Jun-23 01:15N 25°44' W 080°09'13835570.3
2018-Jun-23 01:00N 46°42' W 092°01'50953668284.3
2018-Jun-23 01:00N 46°51' E 031°58'55696682785.8
2018-Jun-23 01:00N 25°44' W 080°09'82337517.2
2018-Jun-23 00:59N 29°33' W 095°02'10392184.4
2018-Jun-23 00:30N 46°43' W 091°60'50933667232.1
2018-Jun-23 00:30N 46°51' E 031°58'6077428983.3
2018-Jun-23 00:30N 29°33' W 095°02'8233482.8
2018-Jun-23 00:15N 25°44' W 080°09'13855582.2
2018-Jun-23 00:00N 46°46' W 091°56'50883663549.7
2018-Jun-23 00:00N 46°51' E 031°58'6077128694.8
2018-Jun-22 23:58N 29°33' W 095°02'823269445.5
2018-Jun-22 23:57N 25°44' W 080°09'13843085.7
2018-Jun-22 23:30N 46°45' W 091°56'50894580286.5
2018-Jun-22 23:30N 46°51' E 031°58'607723754.7
2018-Jun-22 23:15N 29°33' W 095°02'607724889.8
2018-Jun-22 23:00N 46°51' E 031°58'50861144373.9
2018-Jun-22 23:00N 46°45' W 091°52'104324377.1
2018-Jun-22 22:58N 29°33' W 095°02'10472317.0
2018-Jun-22 22:30N 46°48' W 091°44'50784570398.7
2018-Jun-22 22:30N 46°51' E 031°58'6077420731.6
2018-Jun-22 22:30N 29°33' W 095°02'82323337.6
2018-Jun-22 22:27N 25°44' W 080°09'556912367.9
2018-Jun-22 22:00N 46°51' E 031°58'556920048374.4
2018-Jun-22 22:00N 25°44' W 080°09'1383331940.5
2018-Jun-22 22:00N 46°51' W 091°36'105024396.1
2018-Jun-22 21:58N 29°33' W 095°02'0 0.0
2018-Jun-22 21:31N 29°33' W 095°02'60772430897.9
2018-Jun-22 21:30N 46°51' E 031°58'5062242980.8
2018-Jun-22 21:29N 46°54' W 091°27'138317469.6
2018-Jun-22 21:24N 25°44' W 080°09'556913922.5
2018-Jun-22 21:00N 46°51' E 031°58'5054404348.5
2018-Jun-22 21:00N 46°57' W 091°19'138310057.9
2018-Jun-22 20:51N 25°44' W 080°09'8236279.5
2018-Jun-22 20:44N 29°33' W 095°02'607827765.8
2018-Jun-22 20:30N 46°51' E 031°59'50471297819.5
2018-Jun-22 20:30N 46°60' W 091°11'106239009.5
2018-Jun-22 20:29N 29°33' W 095°02'82343586.3
2018-Jun-22 20:27N 25°44' W 080°09'13833063.8
2018-Jun-22 20:00N 47°03' W 091°03'5039283428.4
2018-Jun-22 19:59N 46°51' E 031°58'607722462.1
2018-Jun-22 19:43N 29°33' W 095°02'10704863.6
2018-Jun-22 19:30N 47°06' W 090°54'5031532649.7
2018-Jun-22 19:29N 46°51' E 031°58'607732508.3
2018-Jun-22 19:18N 29°33' W 095°02'10743640.3
2018-Jun-22 19:00N 47°08' W 090°46'5023273969.5
2018-Jun-22 18:59N 46°51' E 031°58'0 0.0
2018-Jun-22 18:29N 46°51' E 031°58'607718051.3
2018-Jun-22 18:09N 29°33' W 095°01'1 3.9
2018-Jun-22 18:00N 29°33' W 095°02'6077287878.0
2018-Jun-22 17:59N 46°51' E 031°58'556914644.5
2018-Jun-22 17:36N 25°44' W 080°09'137917927.1
2018-Jun-22 17:32N 47°13' W 090°19'108228233.0
2018-Jun-22 17:29N 29°33' W 095°02'60771367379.9
2018-Jun-22 17:29N 46°51' E 031°58'5001692387.9
2018-Jun-22 17:29N 47°13' W 090°19'10832295.1
2018-Jun-22 17:00N 29°33' W 095°02'6077284130.4
2018-Jun-22 16:59N 46°51' E 031°58'0 0.0
2018-Jun-22 16:29N 46°51' E 031°58'6077210366.1
2018-Jun-22 16:27N 29°33' W 095°02'82316196.1
2018-Jun-22 16:24N 25°44' W 080°09'556913250.7
2018-Jun-22 15:59N 46°51' E 031°58'6077295649.5
2018-Jun-22 15:58N 29°33' W 095°02'607712675.6
2018-Jun-22 15:29N 46°51' E 031°58'60771682929.5
2018-Jun-22 15:29N 29°33' W 095°02'8232981.8
2018-Jun-22 15:12N 25°44' W 080°09'0 0.0
2018-Jun-22 15:00N 25°44' W 080°09'556979557.0
2018-Jun-22 14:56N 46°51' E 031°58'556912959.5
2018-Jun-22 14:30N 25°44' W 080°09'5569274635.3
2018-Jun-22 14:29N 46°51' E 031°58'607734078.0
2018-Jun-22 14:19N 29°33' W 095°02'8232729.2
2018-Jun-22 14:00N 25°44' W 080°09'5569274635.3
2018-Jun-22 13:59N 46°51' E 031°58'60771988922.4
2018-Jun-22 13:59N 29°33' W 095°02'8231729.3
2018-Jun-22 13:30N 25°44' W 080°09'5569267311.7
2018-Jun-22 13:29N 46°51' E 031°58'6077212408.7
2018-Jun-22 13:27N 29°33' W 095°02'8231826.2
2018-Jun-22 13:00N 25°44' W 080°09'5569270924.0
2018-Jun-22 12:59N 46°51' E 031°58'6077164496.8
2018-Jun-22 12:57N 29°33' W 095°02'8231861.7
2018-Jun-22 12:30N 25°44' W 080°09'5569270924.0
2018-Jun-22 12:29N 46°51' E 031°58'6077132594.4
2018-Jun-22 12:26N 29°33' W 095°02'0 0.0
2018-Jun-22 12:00N 29°33' W 095°02'6077486179.1
2018-Jun-22 11:59N 46°51' E 031°58'5569187368.0
2018-Jun-22 11:57N 25°44' W 080°09'556911841.9
2018-Jun-22 11:29N 46°51' E 031°58'5569190936.9
2018-Jun-22 11:27N 25°44' W 080°09'823102203.8
2018-Jun-22 11:27N 29°33' W 095°02'607713124.2
2018-Jun-22 10:59N 46°51' E 031°58'60771682930.4
2018-Jun-22 10:59N 29°33' W 095°02'82332570.4
2018-Jun-22 10:57N 25°44' W 080°09'8231796.3
2018-Jun-22 10:30N 29°33' W 095°02'6077486178.7
2018-Jun-22 10:29N 46°51' E 031°58'556924271.6
2018-Jun-22 10:15N 25°44' W 080°09'8233293.2
2018-Jun-22 10:00N 29°33' W 095°02'6077295649.7
2018-Jun-22 09:59N 46°51' E 031°58'556943301.0
2018-Jun-22 09:52N 25°44' W 080°09'8232346.7
2018-Jun-22 09:30N 29°33' W 095°02'6077295649.9
2018-Jun-22 09:29N 46°51' E 031°58'556943114.8
2018-Jun-22 09:21N 25°44' W 080°09'556915017.5
2018-Jun-22 08:59N 46°51' E 031°58'607723884.4
2018-Jun-22 08:44N 29°33' W 095°02'607724721.0
2018-Jun-22 08:29N 46°51' E 031°58'6077295649.5
2018-Jun-22 08:28N 29°33' W 095°02'607712675.6
2018-Jun-22 07:59N 46°51' E 031°58'60771562721.6
2018-Jun-22 07:59N 29°33' W 095°02'0 0.0
2018-Jun-22 07:30N 29°33' W 095°02'6077295649.5
2018-Jun-22 07:29N 46°51' E 031°58'0 0.0
2018-Jun-22 06:59N 46°51' E 031°58'607734078.0
2018-Jun-22 06:49N 29°33' W 095°02'607718909.3
2018-Jun-22 06:29N 46°51' E 031°58'6077287869.4
2018-Jun-22 06:28N 29°33' W 095°02'8233978.4
2018-Jun-22 06:16N 25°44' W 080°09'556920478.4
2018-Jun-22 05:59N 46°51' E 031°58'607750294.5
2018-Jun-22 05:52N 29°33' W 095°02'607716027.9
2018-Jun-22 05:29N 46°51' E 031°58'607796379.1
2018-Jun-22 05:25N 29°33' W 095°02'607713908.5
2018-Jun-22 04:59N 46°51' E 031°58'607758812.1
2018-Jun-22 04:53N 29°33' W 095°02'607715310.1
2018-Jun-22 04:29N 46°51' E 031°58'6077287869.5
2018-Jun-22 04:28N 29°33' W 095°02'823113994.7
2018-Jun-22 04:28N 25°44' W 080°09'556911814.0
2018-Jun-22 03:59N 46°51' E 031°58'6077475609.6
2018-Jun-22 03:58N 29°33' W 095°02'0 0.0
2018-Jun-22 03:30N 29°33' W 095°02'6077303861.7
2018-Jun-22 03:29N 46°51' E 031°58'0 0.0
2018-Jun-22 02:59N 46°51' E 031°58'6077455792.2
2018-Jun-22 02:58N 29°33' W 095°02'12283312.0
2018-Jun-22 02:36N 40°43' W 074°03'122812816.0
2018-Jun-22 02:30N 29°33' W 095°02'6077299699.2
2018-Jun-22 02:29N 46°51' E 031°58'460816587257.1
2018-Jun-22 02:29N 40°42' W 074°02'46089225.4
2018-Jun-22 01:59N 46°51' E 031°58'6077160868.1
2018-Jun-22 01:57N 29°33' W 095°02'607713147.9
2018-Jun-22 01:29N 46°51' E 031°58'607739278.5
2018-Jun-22 01:20N 29°33' W 095°02'607717601.1
2018-Jun-22 00:59N 46°51' E 031°58'6077280487.3
2018-Jun-22 00:58N 29°33' W 095°02'607712697.6
2018-Jun-22 00:29N 46°51' E 031°58'0 0.0
2018-Jun-21 23:59N 46°51' E 031°58'556943965.7
2018-Jun-21 23:52N 25°44' W 080°09'556914928.1
2018-Jun-21 23:29N 46°51' E 031°58'0 0.0
2018-Jun-21 22:59N 46°51' E 031°58'0 0.0
2018-Jun-21 22:29N 46°51' E 031°58'0 0.0
2018-Jun-21 21:59N 46°51' E 031°58'0 0.0
2018-Jun-21 21:29N 46°51' E 031°58'0 0.0
2018-Jun-21 20:59N 46°51' E 031°58'460647379.8
2018-Jun-21 20:53N 40°42' W 074°01'460611436.5
2018-Jun-21 20:29N 46°51' E 031°58'0 0.0
2018-Jun-21 19:59N 46°51' E 031°58'0 0.0
2018-Jun-21 19:29N 46°51' E 031°58'0 0.0
2018-Jun-21 18:56N 46°51' E 031°58'0 0.0
2018-Jun-21 18:29N 46°51' E 031°58'0 0.0
2018-Jun-21 17:59N 46°51' E 031°58'0 0.0
2018-Jun-21 17:29N 46°51' E 031°58'0 0.0
2018-Jun-21 16:59N 46°51' E 031°58'434610584.7
2018-Jun-21 16:35N 46°02' W 073°08'434648735.7
2018-Jun-21 16:29N 46°51' E 031°58'0 0.0
2018-Jun-21 15:56N 46°51' E 031°58'0 0.0
2018-Jun-21 15:29N 46°51' E 031°58'0 0.0
2018-Jun-21 14:59N 46°51' E 031°58'556944062.4
2018-Jun-21 14:52N 25°44' W 080°09'556914905.9
2018-Jun-21 14:29N 46°51' E 031°58'607776230.3
2018-Jun-21 14:24N 29°33' W 095°02'82317854.7
2018-Jun-21 14:22N 25°44' W 080°09'556914883.7
2018-Jun-21 13:59N 46°51' E 031°58'6077270100.2
2018-Jun-21 13:58N 29°33' W 095°02'823211707.2
2018-Jun-21 13:58N 25°44' W 080°09'556911751.7
2018-Jun-21 13:29N 46°51' E 031°58'556924659.7
2018-Jun-21 13:16N 25°44' W 080°09'556920333.0
2018-Jun-21 12:59N 46°51' E 031°58'60771041812.5
2018-Jun-21 12:59N 29°33' W 095°02'82340600.6
2018-Jun-21 12:58N 25°44' W 080°09'12013187.9
2018-Jun-21 12:35N 45°33' W 083°30'112.9
2018-Jun-21 12:30N 45°32' W 083°30'4796287762.6
2018-Jun-21 12:29N 46°51' E 031°58'5569217917.0
2018-Jun-21 12:28N 25°44' W 080°09'11942595.7
2018-Jun-21 12:00N 45°27' W 083°24'4796332055.2
2018-Jun-21 11:59N 46°51' E 031°58'556931672.0
2018-Jun-21 11:49N 25°44' W 080°09'8234796.0
2018-Jun-21 11:38N 29°33' W 095°02'607739923.6
2018-Jun-21 11:29N 46°51' E 031°58'5569215573.9
2018-Jun-21 11:28N 25°44' W 080°09'1188534502.9
2018-Jun-21 11:28N 45°21' W 083°19'110055779.7
2018-Jun-21 11:26N 29°33' W 095°02'607713446.9
2018-Jun-21 10:59N 46°51' E 031°58'5569213280.6
2018-Jun-21 10:58N 25°44' W 080°09'823155996.0
2018-Jun-21 10:57N 29°33' W 095°02'607712953.3
2018-Jun-21 10:29N 46°51' E 031°58'5569220311.8
2018-Jun-21 10:28N 25°44' W 080°09'8238516.9
2018-Jun-21 10:22N 29°33' W 095°02'0 0.0
2018-Jun-21 10:00N 29°33' W 095°02'82322118.5
2018-Jun-21 09:58N 25°44' W 080°09'5569227822.4
2018-Jun-21 09:56N 46°51' E 031°58'0 0.0
2018-Jun-21 09:29N 46°51' E 031°58'5569225262.6
2018-Jun-21 09:28N 25°44' W 080°09'556911710.5
2018-Jun-21 08:59N 46°51' E 031°58'556944551.9
2018-Jun-21 08:52N 25°44' W 080°09'556913112.1
2018-Jun-21 08:26N 46°51' E 031°58'556931924.2
2018-Jun-21 08:16N 25°44' W 080°09'556920189.7
2018-Jun-21 07:59N 46°51' E 031°58'556931873.4
2018-Jun-21 07:49N 25°44' W 080°09'556917135.4
2018-Jun-21 07:29N 46°51' E 031°58'556924781.7
2018-Jun-21 07:16N 25°44' W 080°09'556920210.1
2018-Jun-21 06:59N 46°51' E 031°58'556944750.8
2018-Jun-21 06:52N 25°44' W 080°09'556914839.7
2018-Jun-21 06:29N 46°51' E 031°58'556944453.2
2018-Jun-21 06:22N 25°44' W 080°09'556914861.7
2018-Jun-21 05:59N 46°51' E 031°58'5569222759.7
2018-Jun-21 05:58N 25°44' W 080°09'556911724.2
2018-Jun-21 05:29N 46°51' E 031°58'5569227822.4
2018-Jun-21 05:28N 25°44' W 080°09'556911703.7
2018-Jun-21 04:59N 46°51' E 031°58'556944750.8
2018-Jun-21 04:52N 25°44' W 080°09'556914839.7
2018-Jun-21 04:29N 46°51' E 031°58'556924781.7
2018-Jun-21 04:16N 25°44' W 080°09'556920210.1
2018-Jun-21 03:59N 46°51' E 031°58'556944850.9
2018-Jun-21 03:52N 25°44' W 080°09'556914828.7
2018-Jun-21 03:29N 46°51' E 031°58'5569227822.4
2018-Jun-21 03:28N 25°44' W 080°09'556911710.5
2018-Jun-21 02:59N 46°51' E 031°58'460734918.2
2018-Jun-21 02:51N 40°43' W 074°03'95010300.7
2018-Jun-21 02:46N 25°44' W 080°09'556920169.4
2018-Jun-21 02:29N 46°51' E 031°58'4608199875.3
2018-Jun-21 02:28N 40°41' W 074°03'9499408.3
2018-Jun-21 02:22N 25°44' W 080°09'556914817.7
2018-Jun-21 01:59N 46°51' E 031°58'0 0.0
2018-Jun-21 01:29N 46°51' E 031°58'0 0.0
2018-Jun-21 00:59N 46°51' E 031°58'0 0.0
2018-Jun-21 00:29N 46°51' E 031°58'0 0.0
2018-Jun-20 23:59N 46°51' E 031°58'0 0.0
2018-Jun-20 23:29N 46°51' E 031°58'0 0.0
2018-Jun-20 22:59N 46°51' E 031°58'0 0.0
2018-Jun-20 22:29N 46°51' E 031°58'0 0.0
2018-Jun-20 21:59N 46°51' E 031°58'460412141.4
2018-Jun-20 21:36N 40°43' W 073°58'460438186.7
2018-Jun-20 21:29N 46°51' E 031°58'4607100510.0
2018-Jun-20 21:26N 40°42' W 074°01'1 2.7
2018-Jun-20 21:00N 40°43' W 074°03'4607360568.3
2018-Jun-20 20:59N 46°51' E 031°58'0 0.0
2018-Jun-20 20:29N 46°51' E 031°58'0 0.0
2018-Jun-20 19:59N 46°51' E 031°58'0 0.0
2018-Jun-20 19:29N 46°51' E 031°58'0 0.0
2018-Jun-20 18:59N 46°51' E 031°58'0 0.0
2018-Jun-20 18:29N 46°51' E 031°58'0 0.0
2018-Jun-20 17:59N 46°51' E 031°58'0 0.0
2018-Jun-20 17:29N 46°51' E 031°58'0 0.0
2018-Jun-20 16:59N 46°51' E 031°58'0 0.0
2018-Jun-20 16:29N 46°51' E 031°58'0 0.0
2018-Jun-20 15:59N 46°51' E 031°58'0 0.0
2018-Jun-20 14:44N 46°51' E 031°58'0 0.0
2018-Jun-20 14:29N 46°51' E 031°58'0 0.0
2018-Jun-20 13:59N 46°51' E 031°58'607715224.8
2018-Jun-20 13:35N 29°33' W 095°02'140029297.9
2018-Jun-20 13:32N 45°28' W 073°31'438582217.2
2018-Jun-20 13:29N 46°51' E 031°58'4385117803.8
2018-Jun-20 13:27N 45°28' W 073°31'43859475.2
2018-Jun-20 12:59N 46°51' E 031°58'4385404779.4
2018-Jun-20 12:59N 45°28' W 073°32'43858964.4
2018-Jun-20 12:29N 46°51' E 031°58'438571756.3
2018-Jun-20 12:26N 45°28' W 073°32'43859991.4
2018-Jun-20 11:59N 46°51' E 031°58'438539466.0
2018-Jun-20 11:53N 45°28' W 073°32'438511284.1
2018-Jun-20 11:29N 46°51' E 031°58'4385415431.1
2018-Jun-20 11:29N 45°28' W 073°32'43858954.3
2018-Jun-20 10:59N 46°51' E 031°58'0 0.0
2018-Jun-20 10:29N 46°51' E 031°58'0 0.0
2018-Jun-20 09:59N 46°51' E 031°58'0 0.0
2018-Jun-20 09:29N 46°51' E 031°58'0 0.0
2018-Jun-20 08:59N 46°51' E 031°58'0 0.0
2018-Jun-20 08:29N 46°51' E 031°58'0 0.0
2018-Jun-20 07:59N 46°51' E 031°58'556925123.3
2018-Jun-20 07:46N 25°44' W 080°09'556920008.4
2018-Jun-20 07:29N 46°51' E 031°58'556932440.7
2018-Jun-20 07:19N 25°44' W 080°09'556916961.4
2018-Jun-20 06:59N 46°51' E 031°58'5569257030.4
2018-Jun-20 06:58N 25°44' W 080°09'556911642.5
2018-Jun-20 06:29N 46°51' E 031°58'0 0.0
2018-Jun-20 05:59N 46°51' E 031°58'0 0.0
2018-Jun-20 05:29N 46°51' E 031°58'0 0.0
2018-Jun-20 04:59N 46°51' E 031°58'0 0.0
2018-Jun-20 04:29N 46°51' E 031°58'0 0.0
2018-Jun-20 03:59N 46°51' E 031°58'0 0.0
2018-Jun-20 03:29N 46°51' E 031°58'0 0.0
2018-Jun-20 02:59N 46°51' E 031°58'0 0.0
2018-Jun-20 02:29N 46°51' E 031°58'0 0.0
2018-Jun-20 01:59N 46°51' E 031°58'0 0.0
2018-Jun-20 01:29N 46°51' E 031°58'0 0.0
2018-Jun-20 00:59N 46°51' E 031°58'0 0.0
2018-Jun-20 00:29N 46°51' E 031°58'0 0.0
2018-Jun-19 23:59N 46°51' E 031°58'0 0.0
2018-Jun-19 23:29N 46°51' E 031°58'0 0.0
2018-Jun-19 22:59N 46°51' E 031°58'0 0.0
2018-Jun-19 22:29N 46°51' E 031°58'0 0.0
2018-Jun-19 21:59N 46°51' E 031°58'0 0.0
2018-Jun-19 21:29N 46°51' E 031°58'0 0.0
2018-Jun-19 20:59N 46°51' E 031°58'0 0.0
2018-Jun-19 20:29N 46°51' E 031°58'0 0.0
2018-Jun-19 19:59N 46°51' E 031°58'0 0.0
2018-Jun-19 19:29N 46°51' E 031°58'0 0.0
2018-Jun-19 18:59N 46°51' E 031°58'0 0.0
2018-Jun-19 18:29N 46°51' E 031°58'0 0.0
2018-Jun-19 17:59N 46°51' E 031°58'0 0.0
2018-Jun-19 17:29N 46°51' E 031°58'0 0.0
2018-Jun-19 16:59N 46°51' E 031°58'0 0.0
2018-Jun-19 16:29N 46°51' E 031°58'0 0.0
2018-Jun-19 15:59N 46°51' E 031°58'556920689.7
2018-Jun-19 15:43N 25°44' W 080°09'556924125.6
2018-Jun-19 15:29N 46°51' E 031°58'5569294829.0
2018-Jun-19 15:28N 25°44' W 080°09'556911575.3
2018-Jun-19 14:59N 46°51' E 031°58'556917463.7
2018-Jun-19 14:40N 25°44' W 080°09'556930749.0
2018-Jun-19 14:29N 46°51' E 031°58'5569299229.5
2018-Jun-19 14:28N 25°44' W 080°09'556911568.6
2018-Jun-19 13:59N 46°51' E 031°58'0 0.0
2018-Jun-19 13:26N 46°51' E 031°58'0 0.0
2018-Jun-19 12:59N 46°51' E 031°58'556946951.7
2018-Jun-19 12:52N 25°44' W 080°09'556914612.5
2018-Jun-19 12:29N 46°51' E 031°58'556925442.1
2018-Jun-19 12:16N 25°44' W 080°09'556919791.1
2018-Jun-19 11:59N 46°51' E 031°58'556946951.7
2018-Jun-19 11:52N 25°44' W 080°09'556914601.9
2018-Jun-19 11:29N 46°51' E 031°58'556917494.2
2018-Jun-19 11:10N 25°44' W 080°09'556930655.0
2018-Jun-19 10:59N 46°51' E 031°58'5569303763.1
2018-Jun-19 10:58N 25°44' W 080°09'556911561.9
2018-Jun-19 10:29N 46°51' E 031°58'5569303763.0
2018-Jun-19 10:28N 25°44' W 080°09'556910474.6
2018-Jun-19 09:56N 46°51' E 031°58'0 0.0
2018-Jun-19 09:23N 46°51' E 031°58'556925539.3
2018-Jun-19 09:10N 25°44' W 080°09'556930608.2
2018-Jun-19 08:59N 46°51' E 031°58'556947061.9
2018-Jun-19 08:52N 25°44' W 080°09'556912901.1
2018-Jun-19 08:26N 46°51' E 031°58'556920775.5
2018-Jun-19 08:10N 25°44' W 080°09'556930608.2
2018-Jun-19 07:59N 46°51' E 031°58'556947172.6
2018-Jun-19 07:52N 25°44' W 080°09'556914580.6
2018-Jun-19 07:29N 46°51' E 031°58'556947172.6
2018-Jun-19 07:22N 25°44' W 080°09'556914580.6
2018-Jun-19 06:59N 46°51' E 031°58'5569308436.5
2018-Jun-19 06:58N 25°44' W 080°09'556911561.9
2018-Jun-19 06:29N 46°51' E 031°58'556981830.1
2018-Jun-19 06:25N 25°44' W 080°09'556912884.6
2018-Jun-19 05:59N 46°51' E 031°58'5569313255.9
2018-Jun-19 05:58N 25°44' W 080°09'556911548.6
2018-Jun-19 05:29N 46°51' E 031°58'556925604.6
2018-Jun-19 05:16N 25°44' W 080°09'556919713.2
2018-Jun-19 04:59N 46°51' E 031°58'556982165.5
2018-Jun-19 04:55N 25°44' W 080°09'556912884.6
2018-Jun-19 04:29N 46°51' E 031°58'556947283.9
2018-Jun-19 04:22N 25°44' W 080°09'556914570.0
2018-Jun-19 03:59N 46°51' E 031°58'0 0.0
2018-Jun-19 03:29N 46°51' E 031°58'0 0.0
2018-Jun-19 02:59N 46°51' E 031°58'0 0.0
2018-Jun-19 02:29N 46°51' E 031°58'0 0.0
2018-Jun-19 01:59N 46°51' E 031°58'0 0.0
2018-Jun-19 01:29N 46°51' E 031°58'0 0.0
2018-Jun-19 00:59N 46°51' E 031°58'0 0.0
2018-Jun-19 00:29N 46°51' E 031°58'0 0.0
2018-Jun-18 23:59N 46°51' E 031°58'0 0.0
2018-Jun-18 23:29N 46°51' E 031°58'0 0.0
2018-Jun-18 22:59N 46°51' E 031°58'621616877.3
2018-Jun-18 22:37N 53°51' W 130°02'324.2
2018-Jun-18 22:30N 53°54' W 130°05'62161316227.3
2018-Jun-18 22:29N 46°51' E 031°58'621212779.9
2018-Jun-18 22:00N 54°03' W 130°16'6212438526.7
2018-Jun-18 21:59N 46°51' E 031°58'620412763.2
2018-Jun-18 21:30N 54°15' W 130°21'6204446711.8
2018-Jun-18 21:29N 46°51' E 031°58'0 0.0
2018-Jun-18 20:59N 46°51' E 031°58'619919888.3
2018-Jun-18 20:41N 54°19' W 130°19'619932912.5
2018-Jun-18 20:29N 46°51' E 031°58'0 0.0
2018-Jun-18 19:59N 46°51' E 031°58'0 0.0
2018-Jun-18 19:29N 46°51' E 031°58'0 0.0
2018-Jun-18 18:59N 46°51' E 031°58'0 0.0
2018-Jun-18 18:29N 46°51' E 031°58'0 0.0
2018-Jun-18 17:59N 46°51' E 031°58'0 0.0
2018-Jun-18 17:29N 46°51' E 031°58'0 0.0
2018-Jun-18 16:59N 46°51' E 031°58'0 0.0
2018-Jun-18 16:29N 46°51' E 031°58'0 0.0
2018-Jun-18 15:59N 46°51' E 031°58'0 0.0
2018-Jun-18 15:29N 46°51' E 031°58'0 0.0
2018-Jun-18 14:59N 46°51' E 031°58'0 0.0
2018-Jun-18 14:29N 46°51' E 031°58'0 0.0
2018-Jun-18 13:59N 46°51' E 031°58'0 0.0
2018-Jun-18 13:29N 46°51' E 031°58'0 0.0
2018-Jun-18 12:59N 46°51' E 031°58'0 0.0
2018-Jun-18 12:29N 46°51' E 031°58'0 0.0
2018-Jun-18 11:59N 46°51' E 031°58'0 0.0
2018-Jun-18 11:23N 46°51' E 031°58'0 0.0
2018-Jun-18 10:59N 46°51' E 031°58'556925935.8
2018-Jun-18 10:46N 25°44' W 080°09'556919540.3
2018-Jun-18 10:29N 46°51' E 031°58'5569378271.2
2018-Jun-18 10:28N 25°44' W 080°09'556911469.3
2018-Jun-18 09:59N 46°51' E 031°58'556925935.8
2018-Jun-18 09:46N 25°44' W 080°09'556919540.3
2018-Jun-18 09:29N 46°51' E 031°58'556948426.0
2018-Jun-18 09:22N 25°44' W 080°09'556914464.9
2018-Jun-18 08:59N 46°51' E 031°58'556948426.0
2018-Jun-18 08:52N 25°44' W 080°09'556914454.5
2018-Jun-18 08:29N 46°51' E 031°58'556948661.1
2018-Jun-18 08:22N 25°44' W 080°09'556914454.5
2018-Jun-18 07:59N 46°51' E 031°58'5569371266.2
2018-Jun-18 07:58N 25°44' W 080°09'556911475.9
2018-Jun-18 07:29N 46°51' E 031°58'5569385545.5
2018-Jun-18 07:28N 25°44' W 080°09'556911469.3
2018-Jun-18 06:59N 46°51' E 031°58'556949018.0
2018-Jun-18 06:52N 25°44' W 080°09'556914412.9
2018-Jun-18 06:29N 46°51' E 031°58'0 0.0
2018-Jun-18 05:59N 46°51' E 031°58'5569409150.5
2018-Jun-18 05:58N 25°44' W 080°09'556911449.7
2018-Jun-18 05:29N 46°51' E 031°58'0 0.0
2018-Jun-18 04:59N 46°51' E 031°58'556926003.1
2018-Jun-18 04:46N 25°44' W 080°09'556919483.3
2018-Jun-18 04:29N 46°51' E 031°58'0 0.0
2018-Jun-18 03:59N 46°51' E 031°58'556933980.3
2018-Jun-18 03:49N 25°44' W 080°09'556916568.9
2018-Jun-18 03:29N 46°51' E 031°58'0 0.0
2018-Jun-18 02:59N 46°51' E 031°58'0 0.0
2018-Jun-18 02:29N 46°51' E 031°58'0 0.0
2018-Jun-18 01:59N 46°51' E 031°58'0 0.0
2018-Jun-18 01:29N 46°51' E 031°58'2185.9
2018-Jun-18 01:15N 46°38' E 031°35'555525378.7
2018-Jun-18 01:01N 25°44' W 080°09'5569150739.6
2018-Jun-18 00:59N 46°51' E 031°58'21477.7
2018-Jun-18 00:57N 46°38' E 031°35'248.0
2018-Jun-18 00:54N 46°36' E 031°37'555730309.6
2018-Jun-18 00:43N 25°44' W 080°09'556923558.6
2018-Jun-18 00:29N 46°51' E 031°58'21474.6
2018-Jun-18 00:27N 46°38' E 031°35'2146.0
2018-Jun-17 23:59N 46°51' E 031°58'21477.7
2018-Jun-17 23:57N 46°38' E 031°35'212.8
2018-Jun-17 23:48N 46°36' E 031°37'2166.1
2018-Jun-17 23:29N 46°51' E 031°58'21270.5
2018-Jun-17 23:25N 46°38' E 031°35'217.0
2018-Jun-17 23:18N 46°36' E 031°37'2166.1
2018-Jun-17 22:59N 46°51' E 031°58'0 0.0
2018-Jun-17 22:29N 46°51' E 031°58'0 0.0
2018-Jun-17 21:59N 46°51' E 031°58'0 0.0
2018-Jun-17 21:29N 46°51' E 031°58'0 0.0
2018-Jun-17 20:59N 46°51' E 031°58'0 0.0
2018-Jun-17 20:29N 46°51' E 031°58'0 0.0
2018-Jun-17 19:59N 46°51' E 031°58'460710372.8
2018-Jun-17 19:33N 40°43' W 074°03'0 0.0
2018-Jun-17 19:30N 40°43' W 074°03'4607318964.3
2018-Jun-17 19:29N 46°51' E 031°58'0 0.0
2018-Jun-17 18:59N 46°51' E 031°58'460811008.9
2018-Jun-17 18:34N 40°41' W 074°03'460856622.6
2018-Jun-17 18:29N 46°51' E 031°58'4609255253.1
2018-Jun-17 18:28N 40°42' W 074°04'46099562.8
2018-Jun-17 17:59N 46°51' E 031°58'556989103.9
2018-Jun-17 17:55N 25°44' W 080°09'556912737.2
2018-Jun-17 17:29N 46°51' E 031°58'0 0.0
2018-Jun-17 16:59N 46°51' E 031°58'0 0.0
2018-Jun-17 16:29N 46°51' E 031°58'0 0.0
2018-Jun-17 15:59N 46°51' E 031°58'0 0.0
2018-Jun-17 15:29N 46°51' E 031°58'460670263.0
2018-Jun-17 15:25N 40°43' W 074°02'460610602.3
2018-Jun-17 14:59N 46°51' E 031°58'0 0.0
2018-Jun-17 14:29N 46°51' E 031°58'0 0.0
2018-Jun-17 13:59N 46°51' E 031°58'0 0.0
2018-Jun-17 13:29N 46°51' E 031°58'556926379.4
2018-Jun-17 13:17N 25°44' W 080°09'556919277.3
2018-Jun-17 12:59N 46°51' E 031°58'0 0.0
2018-Jun-17 12:29N 46°51' E 031°58'0 0.0
2018-Jun-17 11:59N 46°51' E 031°58'0 0.0
2018-Jun-17 11:29N 46°51' E 031°58'442949513.0
2018-Jun-17 11:24N 45°12' W 074°18'410.4
2018-Jun-17 11:01N 45°14' W 074°13'4424206829.5
2018-Jun-17 10:59N 46°51' E 031°58'44199138.5
2018-Jun-17 10:30N 45°14' W 074°07'4419265167.8
2018-Jun-17 10:29N 46°51' E 031°58'44159230.8
2018-Jun-17 10:01N 45°14' W 074°01'441536291.1
2018-Jun-17 09:53N 46°51' E 031°58'0 0.1
2018-Jun-17 09:29N 46°51' E 031°58'4410244239.4
2018-Jun-17 09:28N 45°17' W 073°56'12123541.9
2018-Jun-17 09:08N 25°44' W 080°09'121310302.8
2018-Jun-17 09:01N 45°18' W 073°56'4408200893.5
2018-Jun-17 08:59N 46°51' E 031°58'44089220.8
2018-Jun-17 08:31N 45°19' W 073°55'4408200873.7
2018-Jun-17 08:29N 46°51' E 031°58'44089219.9
2018-Jun-17 08:01N 45°19' W 073°55'4408203429.4
2018-Jun-17 07:59N 46°51' E 031°58'44078928.4
2018-Jun-17 07:30N 45°19' W 073°55'4407689817.7
2018-Jun-17 07:29N 46°51' E 031°58'44049121.5
2018-Jun-17 07:00N 45°21' W 073°51'4404251637.8
2018-Jun-17 06:59N 46°51' E 031°58'43989119.9
2018-Jun-17 06:30N 45°24' W 073°46'4398251303.4
2018-Jun-17 06:29N 46°51' E 031°58'556917948.4
2018-Jun-17 06:11N 25°44' W 080°09'12237100.7
2018-Jun-17 06:00N 45°25' W 073°41'4394251082.4
2018-Jun-17 05:59N 46°51' E 031°58'556934685.8
2018-Jun-17 05:50N 25°44' W 080°09'556916406.2
2018-Jun-17 05:29N 46°51' E 031°58'4391161317.2
2018-Jun-17 05:28N 45°24' W 073°37'2 4.2
2018-Jun-17 05:00N 45°24' W 073°34'4389367480.9
2018-Jun-17 04:59N 46°51' E 031°58'43899160.0
2018-Jun-17 04:30N 45°24' W 073°34'4389213526.7
2018-Jun-17 04:29N 46°51' E 031°58'556921350.8
2018-Jun-17 04:14N 25°44' W 080°09'12245629.6
2018-Jun-17 04:01N 45°25' W 073°32'4388199947.0
2018-Jun-17 03:59N 46°51' E 031°58'556993248.3
2018-Jun-17 03:56N 25°44' W 080°09'12272933.6
2018-Jun-17 03:31N 45°27' W 073°30'4385199814.0
2018-Jun-17 03:29N 46°51' E 031°58'556913573.7
2018-Jun-17 03:05N 25°44' W 080°09'556962069.3
2018-Jun-17 02:59N 46°51' E 031°58'556921396.3
2018-Jun-17 02:44N 25°44' W 080°09'556923258.0
2018-Jun-17 02:29N 46°51' E 031°58'438422226.5
2018-Jun-17 02:17N 45°30' W 073°31'438414464.5
2018-Jun-17 01:59N 46°51' E 031°58'0 0.0
2018-Jun-17 01:29N 46°51' E 031°58'0 0.0
2018-Jun-17 00:59N 46°51' E 031°58'0 0.0
2018-Jun-17 00:29N 46°51' E 031°58'437314631.5
2018-Jun-17 00:11N 45°41' W 073°27'437317415.4
2018-Jun-16 23:56N 46°51' E 031°58'43713933799.6
2018-Jun-16 23:56N 45°43' W 073°26'43719737.1
2018-Jun-16 23:29N 46°51' E 031°58'43663143746.0
2018-Jun-16 23:29N 45°46' W 073°22'141641107.2
2018-Jun-16 23:27N 29°33' W 095°02'14203201.6
2018-Jun-16 23:00N 45°49' W 073°18'4361212168.7
2018-Jun-16 22:59N 46°51' E 031°58'60811990042.3
2018-Jun-16 22:59N 29°32' W 095°05'14272880.5
2018-Jun-16 22:29N 45°53' W 073°14'43563136331.4
2018-Jun-16 22:29N 46°51' E 031°58'6081216733.4
2018-Jun-16 22:28N 29°32' W 095°05'14313171.8
2018-Jun-16 22:00N 45°57' W 073°12'4352211721.3
2018-Jun-16 21:59N 46°51' E 031°58'607799445.2
2018-Jun-16 21:56N 29°33' W 095°01'14323423.6
2018-Jun-16 21:30N 46°02' W 073°10'4348211501.5
2018-Jun-16 21:29N 46°51' E 031°58'607735807.1
2018-Jun-16 21:19N 29°33' W 095°02'14364633.7
2018-Jun-16 21:00N 46°04' W 073°05'4342214149.3
2018-Jun-16 20:59N 46°51' E 031°58'0 0.0
2018-Jun-16 20:29N 46°51' E 031°58'0 0.0
2018-Jun-16 19:59N 46°51' E 031°58'0 0.0
2018-Jun-16 19:29N 46°51' E 031°58'0 0.0
2018-Jun-16 18:59N 46°51' E 031°58'556913638.3
2018-Jun-16 18:35N 25°44' W 080°09'556960752.6
2018-Jun-16 18:29N 46°51' E 031°58'556926660.1
2018-Jun-16 18:17N 25°44' W 080°09'556919130.1
2018-Jun-16 17:59N 46°51' E 031°58'0 0.0
2018-Jun-16 17:29N 46°51' E 031°58'0 0.0
2018-Jun-16 16:59N 46°51' E 031°58'556918045.3
2018-Jun-16 16:41N 25°44' W 080°09'556929097.8
2018-Jun-16 16:29N 46°51' E 031°58'556935111.0
2018-Jun-16 16:20N 25°44' W 080°09'556916312.8
2018-Jun-16 15:59N 46°51' E 031°58'556951274.6
2018-Jun-16 15:53N 25°44' W 080°09'556914238.9
2018-Jun-16 15:29N 46°51' E 031°58'5569646721.8
2018-Jun-16 15:29N 25°44' W 080°09'556911326.8
2018-Jun-16 14:59N 46°51' E 031°58'0 0.0
2018-Jun-16 14:29N 46°51' E 031°58'0 0.0
2018-Jun-16 13:59N 46°51' E 031°58'556912165.3
2018-Jun-16 13:32N 25°44' W 080°09'5569131897.2
2018-Jun-16 13:29N 46°51' E 031°58'556996852.1
2018-Jun-16 13:26N 25°44' W 080°09'556912585.3
2018-Jun-16 12:59N 46°51' E 031°58'5569742532.4
2018-Jun-16 12:59N 25°44' W 080°09'556911307.6
2018-Jun-16 12:29N 46°51' E 031°58'556951804.6
2018-Jun-16 12:23N 25°44' W 080°09'133516572.3
2018-Jun-16 12:18N 46°47' W 071°14'423713583.9
2018-Jun-16 11:59N 46°51' E 031°58'4234435446.0
2018-Jun-16 11:59N 46°50' W 071°11'42348639.8
2018-Jun-16 11:29N 46°51' E 031°58'5569716013.4
2018-Jun-16 11:29N 25°44' W 080°09'556911307.6
2018-Jun-16 10:59N 46°51' E 031°58'0 0.0
2018-Jun-16 10:29N 46°51' E 031°58'556918094.2
2018-Jun-16 10:11N 25°44' W 080°09'556928971.6
2018-Jun-16 09:59N 46°51' E 031°58'5569716013.4
2018-Jun-16 09:59N 25°44' W 080°09'556911314.0
2018-Jun-16 09:29N 46°51' E 031°58'556913684.9
2018-Jun-16 09:05N 25°44' W 080°09'556959845.8
2018-Jun-16 08:59N 46°51' E 031°58'556918143.3
2018-Jun-16 08:41N 25°44' W 080°09'556928846.6
2018-Jun-16 08:29N 46°51' E 031°58'556921627.1
2018-Jun-16 08:14N 25°44' W 080°09'556922964.9
2018-Jun-16 07:59N 46°51' E 031°58'556998276.3
2018-Jun-16 07:56N 25°44' W 080°09'556912561.6
2018-Jun-16 07:29N 46°51' E 031°58'556913684.9
2018-Jun-16 07:05N 25°44' W 080°09'556959845.9
2018-Jun-16 06:59N 46°51' E 031°58'556926874.5
2018-Jun-16 06:47N 25°44' W 080°09'556919021.2
2018-Jun-16 06:29N 46°51' E 031°58'5569771091.3
2018-Jun-16 06:29N 25°44' W 080°09'556910265.4
2018-Jun-16 05:56N 46°51' E 031°58'5569742532.1
2018-Jun-16 05:56N 25°44' W 080°09'556912577.4
2018-Jun-16 05:29N 46°51' E 031°58'556998276.3
2018-Jun-16 05:26N 25°44' W 080°09'556912561.6
2018-Jun-16 04:59N 46°51' E 031°58'5569835347.9
2018-Jun-16 04:59N 25°44' W 080°09'556911288.5
2018-Jun-16 04:29N 46°51' E 031°58'0 0.0
2018-Jun-16 03:59N 46°51' E 031°58'556918176.2
2018-Jun-16 03:41N 25°44' W 080°09'556928763.8
2018-Jun-16 03:29N 46°51' E 031°58'556918159.8
2018-Jun-16 03:11N 25°44' W 080°09'556928805.1
2018-Jun-16 02:59N 46°51' E 031°58'5569911289.0
2018-Jun-16 02:59N 25°44' W 080°09'556911275.8
2018-Jun-16 02:29N 46°51' E 031°58'556921768.1
2018-Jun-16 02:14N 25°44' W 080°09'556922808.2
2018-Jun-16 01:59N 46°51' E 031°58'0 0.0
2018-Jun-16 01:29N 46°51' E 031°58'556915638.4
2018-Jun-16 01:08N 25°44' W 080°09'556938703.4
2018-Jun-16 00:59N 46°51' E 031°58'556935673.3
2018-Jun-16 00:50N 25°44' W 080°09'556916194.2
2018-Jun-16 00:29N 46°51' E 031°58'0 0.0
2018-Jun-15 23:59N 46°51' E 031°58'0 0.0
2018-Jun-15 23:29N 46°51' E 031°58'0 0.0
2018-Jun-15 22:59N 46°51' E 031°58'0 0.0
2018-Jun-15 22:26N 46°51' E 031°58'0 0.0
2018-Jun-15 21:53N 46°51' E 031°58'0 0.0
2018-Jun-15 21:29N 46°51' E 031°58'0 0.0
2018-Jun-15 20:47N 46°51' E 031°58'0 0.0
2018-Jun-15 20:29N 46°51' E 031°58'0 0.0
2018-Jun-15 19:59N 46°51' E 031°58'0 0.0
2018-Jun-15 19:29N 46°51' E 031°58'0 0.0
2018-Jun-15 18:59N 46°51' E 031°58'0 0.0
2018-Jun-15 18:29N 46°51' E 031°58'0 0.0
2018-Jun-15 17:59N 46°51' E 031°58'0 0.0
2018-Jun-15 17:26N 46°51' E 031°58'0 0.0
2018-Jun-15 16:59N 46°51' E 031°58'0 0.0
2018-Jun-15 16:29N 46°51' E 031°58'0 0.0
2018-Jun-15 15:59N 46°51' E 031°58'0 0.0
2018-Jun-15 15:29N 46°51' E 031°58'556918309.0
2018-Jun-15 15:11N 25°44' W 080°09'556928437.4
2018-Jun-15 14:59N 46°51' E 031°58'5569101254.4
2018-Jun-15 14:56N 25°44' W 080°09'556912514.6
2018-Jun-15 14:29N 46°51' E 031°58'556936058.2
2018-Jun-15 14:20N 25°44' W 080°09'82325117.7
2018-Jun-15 14:18N 29°33' W 095°02'607719429.9
2018-Jun-15 13:59N 46°51' E 031°58'556921863.0
2018-Jun-15 13:44N 25°44' W 080°09'556922704.8
2018-Jun-15 13:29N 46°51' E 031°58'5569102287.6
2018-Jun-15 13:26N 25°44' W 080°09'556912499.0
2018-Jun-15 12:59N 46°51' E 031°58'55691179316.1
2018-Jun-15 12:59N 25°44' W 080°09'0 0.0
2018-Jun-15 12:29N 25°44' W 080°09'5569122246.2
2018-Jun-15 12:26N 46°51' E 031°58'0 0.0
2018-Jun-15 11:59N 46°51' E 031°58'556936058.2
2018-Jun-15 11:50N 25°44' W 080°09'556916991.0
2018-Jun-15 11:30N 46°51' E 031°59'556945984.9
2018-Jun-15 11:23N 25°44' W 080°09'556914423.3
2018-Jun-15 11:00N 46°51' E 031°58'556926003.1
2018-Jun-15 10:47N 25°44' W 080°09'8233293.2
2018-Jun-15 10:32N 29°33' W 095°02'6077169597.2
2018-Jun-15 10:30N 46°51' E 031°58'5569393105.4
2018-Jun-15 10:29N 25°44' W 080°09'556911456.2
2018-Jun-15 10:00N 46°51' E 031°58'5569393105.0
2018-Jun-15 09:59N 25°44' W 080°09'556910398.5
2018-Jun-15 09:27N 46°51' E 031°58'556921059.2
2018-Jun-15 09:11N 25°44' W 080°09'556930012.5
2018-Jun-15 09:00N 46°51' E 031°58'556948543.3
2018-Jun-15 08:53N 25°44' W 080°09'556914454.5
2018-Jun-15 08:30N 46°51' E 031°58'5569385545.7
2018-Jun-15 08:29N 25°44' W 080°09'556911469.3
2018-Jun-15 08:00N 46°51' E 031°58'5569400967.5
2018-Jun-15 07:59N 25°44' W 080°09'556911456.2
2018-Jun-15 07:30N 46°51' E 031°58'5569400967.5
2018-Jun-15 07:29N 25°44' W 080°09'556911456.2
2018-Jun-15 07:00N 46°51' E 031°58'0 0.0
2018-Jun-15 06:24N 46°51' E 031°58'5569400967.5
2018-Jun-15 06:23N 25°44' W 080°09'556914423.3
2018-Jun-15 06:00N 46°51' E 031°58'556949018.0
2018-Jun-15 05:53N 25°44' W 080°09'82312196.8
2018-Jun-15 05:49N 29°33' W 095°02'607719057.5
2018-Jun-15 05:30N 46°51' E 031°58'5569400967.5
2018-Jun-15 05:29N 25°44' W 080°09'8235800.2
2018-Jun-15 05:20N 29°33' W 095°02'8232302.9
2018-Jun-15 04:59N 25°44' W 080°09'0 0.0
2018-Jun-15 04:23N 25°44' W 080°09'5569153041.0
2018-Jun-15 04:21N 46°51' E 031°58'556915315.8
2018-Jun-15 03:59N 25°44' W 080°09'5569151881.6
2018-Jun-15 03:57N 46°51' E 031°58'0 0.0
2018-Jun-15 03:30N 46°51' E 031°58'556926070.7
2018-Jun-15 03:17N 25°44' W 080°09'556919445.6
2018-Jun-15 03:00N 46°51' E 031°58'5569400967.5
2018-Jun-15 02:59N 25°44' W 080°09'556911456.2
2018-Jun-15 02:30N 46°51' E 031°58'5569417674.5
2018-Jun-15 02:29N 25°44' W 080°09'556911443.1
2018-Jun-15 02:00N 46°51' E 031°58'556926104.6
2018-Jun-15 01:47N 25°44' W 080°09'556919407.9
2018-Jun-15 01:30N 46°51' E 031°58'556913500.6
2018-Jun-15 01:05N 25°44' W 080°09'556963645.6
2018-Jun-15 01:00N 46°51' E 031°58'5569426560.6
2018-Jun-15 00:59N 25°44' W 080°09'95013463.8
2018-Jun-15 00:55N 40°43' W 074°03'460711072.2
2018-Jun-15 00:30N 46°51' E 031°58'5569417674.5
2018-Jun-15 00:29N 25°44' W 080°09'0 0.0
2018-Jun-14 23:59N 25°44' W 080°09'556963444.2
2018-Jun-14 23:54N 46°51' E 031°58'0 0.0
2018-Jun-14 23:30N 46°51' E 031°58'5569435834.2
2018-Jun-14 23:29N 25°44' W 080°09'556911430.1
2018-Jun-14 23:00N 46°51' E 031°58'5569426561.2
2018-Jun-14 22:59N 25°44' W 080°09'556911430.1
2018-Jun-14 22:30N 46°51' E 031°58'5569435834.2
2018-Jun-14 22:29N 25°44' W 080°09'556911436.6
2018-Jun-14 22:00N 46°51' E 031°58'5569435834.2
2018-Jun-14 21:59N 25°44' W 080°09'9511992.5
2018-Jun-14 21:30N 40°44' W 074°01'4605460544.2
2018-Jun-14 21:30N 46°51' E 031°58'5569445519.4
2018-Jun-14 21:29N 25°44' W 080°09'9501954.2
2018-Jun-14 21:00N 40°43' W 074°03'46075528714.3
2018-Jun-14 21:00N 46°51' E 031°58'556949258.9
2018-Jun-14 20:53N 25°44' W 080°09'556914371.6
2018-Jun-14 20:30N 46°51' E 031°58'5569445519.4
2018-Jun-14 20:29N 25°44' W 080°09'556911430.1
2018-Jun-14 20:00N 46°51' E 031°58'5569466240.9
2018-Jun-14 19:59N 25°44' W 080°09'556911410.6
2018-Jun-14 19:30N 46°51' E 031°58'5569455644.5
2018-Jun-14 19:29N 25°44' W 080°09'556911417.1
2018-Jun-14 19:00N 46°51' E 031°58'0 0.0
2018-Jun-14 18:30N 46°51' E 031°58'0 0.0
2018-Jun-14 18:00N 46°51' E 031°58'556917836.6
2018-Jun-14 17:41N 25°44' W 080°09'556929613.5
2018-Jun-14 17:30N 46°51' E 031°58'556950120.9
2018-Jun-14 17:23N 25°44' W 080°09'556914330.5
2018-Jun-14 17:00N 46°51' E 031°58'0 0.0
2018-Jun-14 16:30N 46°51' E 031°58'556921237.7
2018-Jun-14 16:14N 25°44' W 080°09'556923421.0
2018-Jun-14 16:00N 46°51' E 031°58'5569466241.3
2018-Jun-14 15:59N 25°44' W 080°09'556911404.1
2018-Jun-14 15:30N 46°51' E 031°58'556949747.8
2018-Jun-14 15:23N 25°44' W 080°09'556914361.3
2018-Jun-14 15:00N 46°51' E 031°58'556990308.0
2018-Jun-14 14:56N 25°44' W 080°09'556912704.9
2018-Jun-14 14:30N 46°51' E 031°58'556934447.4
2018-Jun-14 14:20N 25°44' W 080°09'556916460.1
2018-Jun-14 14:00N 46°51' E 031°58'5569477342.2
2018-Jun-14 13:59N 25°44' W 080°09'122915683.7
2018-Jun-14 13:54N 45°29' W 073°32'438510694.4
2018-Jun-14 13:30N 46°51' E 031°58'556913527.9
2018-Jun-14 13:05N 25°44' W 080°09'556963045.2
2018-Jun-14 13:00N 46°51' E 031°58'0 0.0
2018-Jun-14 12:30N 46°51' E 031°58'0 0.0
2018-Jun-14 12:00N 46°51' E 031°58'0 0.0
2018-Jun-14 11:30N 46°51' E 031°58'556921350.8
2018-Jun-14 11:14N 25°44' W 080°09'556923312.1
2018-Jun-14 11:00N 46°51' E 031°58'556949995.9
2018-Jun-14 10:53N 25°44' W 080°09'8232507.5
2018-Jun-14 10:33N 29°33' W 095°02'6077100820.6
2018-Jun-14 10:30N 46°51' E 031°58'556926379.4
2018-Jun-14 10:17N 25°44' W 080°09'823269443.8
2018-Jun-14 10:17N 29°33' W 095°02'607721261.5
2018-Jun-14 10:00N 46°51' E 031°58'0 0.0
2018-Jun-14 09:30N 46°51' E 031°58'556913546.2
2018-Jun-14 09:05N 25°44' W 080°09'556943024.1
2018-Jun-14 08:57N 46°51' E 031°59'556913251.3
2018-Jun-14 08:32N 25°44' W 080°09'5569177419.2
2018-Jun-14 08:30N 46°51' E 031°58'556981167.5
2018-Jun-14 08:26N 25°44' W 080°09'8232568.4
2018-Jun-14 08:07N 29°33' W 095°02'607754832.3
2018-Jun-14 08:00N 46°51' E 031°58'0 0.0
2018-Jun-14 07:27N 46°51' E 031°58'556932974.3
2018-Jun-14 07:17N 25°44' W 080°09'556919791.1
2018-Jun-14 07:00N 46°51' E 031°58'556947172.6
2018-Jun-14 06:53N 25°44' W 080°09'556912892.8
2018-Jun-14 06:27N 46°51' E 031°58'556933083.1
2018-Jun-14 06:17N 25°44' W 080°09'82313350.7
2018-Jun-14 06:14N 29°33' W 095°02'607727623.8
2018-Jun-14 06:00N 46°51' E 031°58'60771151477.1
2018-Jun-14 06:00N 29°33' W 095°02'0 0.0
2018-Jun-14 05:30N 29°33' W 095°02'607764537.0
2018-Jun-14 05:24N 46°51' E 031°58'423428019.9
2018-Jun-14 05:15N 46°50' W 071°12'13385013.7
2018-Jun-14 04:59N 25°44' W 080°09'13385749.6
2018-Jun-14 04:45N 46°50' W 071°12'423412136.0
2018-Jun-14 04:24N 46°51' E 031°58'5569303763.2
2018-Jun-14 04:23N 25°44' W 080°09'0 0.0
2018-Jun-14 03:59N 25°44' W 080°09'0 0.0
2018-Jun-14 03:29N 25°44' W 080°09'0 0.0
2018-Jun-14 02:59N 25°44' W 080°09'556930561.5
2018-Jun-14 02:48N 46°51' E 031°58'0 0.0
2018-Jun-14 02:27N 46°51' E 031°58'5569313255.9
2018-Jun-14 02:26N 25°44' W 080°09'556912876.3
2018-Jun-14 02:00N 46°51' E 031°58'5569318228.2
2018-Jun-14 01:59N 25°44' W 080°09'556911548.6
2018-Jun-14 01:30N 46°51' E 031°58'556933247.7
2018-Jun-14 01:20N 25°44' W 080°09'556916734.9
2018-Jun-14 01:00N 46°51' E 031°58'5569318228.2
2018-Jun-14 00:59N 25°44' W 080°09'556911542.0
2018-Jun-14 00:30N 46°51' E 031°58'5569318228.2
2018-Jun-14 00:29N 25°44' W 080°09'556911548.6
2018-Jun-14 00:00N 46°51' E 031°58'556982503.6
2018-Jun-13 23:56N 25°44' W 080°09'556912868.0
2018-Jun-13 23:30N 46°51' E 031°58'5569323360.9
2018-Jun-13 23:29N 25°44' W 080°09'556911535.3
2018-Jun-13 23:00N 46°51' E 031°58'21329.5
2018-Jun-13 22:56N 46°38' E 031°35'2148.1
2018-Jun-13 22:30N 46°51' E 031°58'21332.4
2018-Jun-13 22:27N 46°38' E 031°35'2148.0
2018-Jun-13 22:00N 46°51' E 031°58'0 0.0
2018-Jun-13 21:30N 46°51' E 031°58'0 0.0
2018-Jun-13 20:57N 46°51' E 031°58'0 0.0
2018-Jun-13 20:30N 46°51' E 031°58'0 0.2
2018-Jun-13 19:59N 46°51' E 031°58'2138.2
2018-Jun-13 19:26N 46°38' E 031°35'21144.6
2018-Jun-13 19:18N 46°51' E 031°58'0 0.0
2018-Jun-13 18:51N 46°51' E 031°58'0 0.0
2018-Jun-13 18:30N 46°51' E 031°58'0 0.0
2018-Jun-13 18:00N 46°51' E 031°58'556926838.5
2018-Jun-13 17:47N 25°44' W 080°09'555555244.2
2018-Jun-13 17:41N 46°38' E 031°35'21109.2
2018-Jun-13 17:30N 46°51' E 031°58'212695.2
2018-Jun-13 17:29N 46°38' E 031°35'555518517.1
2018-Jun-13 17:11N 25°44' W 080°09'556928971.6
2018-Jun-13 17:00N 46°51' E 031°58'556921603.9
2018-Jun-13 16:44N 25°44' W 080°09'556922991.3
2018-Jun-13 16:30N 46°51' E 031°58'556996386.4
2018-Jun-13 16:26N 25°44' W 080°09'556912593.2
2018-Jun-13 16:00N 46°51' E 031°58'556952073.7
2018-Jun-13 15:53N 25°44' W 080°09'556914168.5
2018-Jun-13 15:30N 46°51' E 031°58'5569742532.4
2018-Jun-13 15:29N 25°44' W 080°09'556911307.6
2018-Jun-13 15:00N 46°51' E 031°58'5569771091.3
2018-Jun-13 14:59N 25°44' W 080°09'556911301.2
2018-Jun-13 14:30N 46°51' E 031°58'556951938.8
2018-Jun-13 14:23N 25°44' W 080°09'556914178.5
2018-Jun-13 14:00N 46°51' E 031°58'556926874.5
2018-Jun-13 13:47N 25°44' W 080°09'556919021.2
2018-Jun-13 13:30N 46°51' E 031°58'556951804.6
2018-Jun-13 13:23N 25°44' W 080°09'556914188.5
2018-Jun-13 13:00N 46°51' E 031°58'556997322.2
2018-Jun-13 12:56N 25°44' W 080°09'556912585.3
2018-Jun-13 12:30N 46°51' E 031°58'556926910.6
2018-Jun-13 12:17N 25°44' W 080°09'556918985.2
2018-Jun-13 12:00N 46°51' E 031°58'5569911289.7
2018-Jun-13 11:59N 25°44' W 080°09'556911275.8
2018-Jun-13 11:30N 46°51' E 031°58'5569954684.5
2018-Jun-13 11:29N 25°44' W 080°09'0 0.0
2018-Jun-13 10:50N 25°44' W 080°09'126825644.1
2018-Jun-13 10:47N 46°04' W 073°04'312.2
2018-Jun-13 10:30N 46°03' W 073°09'12663991.5
2018-Jun-13 10:11N 25°44' W 080°09'556959667.8
2018-Jun-13 10:06N 46°51' E 031°58'435249265.1
2018-Jun-13 10:00N 45°58' W 073°12'4352373006.9
2018-Jun-13 10:00N 46°51' E 031°58'5569835348.9
2018-Jun-13 09:59N 25°44' W 080°09'12542596.8
2018-Jun-13 09:30N 45°52' W 073°16'4358412900.2
2018-Jun-13 09:30N 46°51' E 031°58'5569911289.7
2018-Jun-13 09:29N 25°44' W 080°09'12472574.9
2018-Jun-13 09:00N 45°46' W 073°22'4366462307.7
2018-Jun-13 09:00N 46°51' E 031°58'556998276.3
2018-Jun-13 08:56N 25°44' W 080°09'556912561.6
2018-Jun-13 08:30N 46°51' E 031°58'4374393645.7
2018-Jun-13 08:29N 45°40' W 073°27'124113020.5
2018-Jun-13 08:23N 25°44' W 080°09'0 0.0
2018-Jun-13 07:59N 25°44' W 080°09'5569128515.1
2018-Jun-13 07:57N 46°51' E 031°58'0 0.0
2018-Jun-13 07:30N 46°51' E 031°58'556999249.4
2018-Jun-13 07:26N 25°44' W 080°09'12304088.4
2018-Jun-13 07:08N 45°30' W 073°31'0 2.2
2018-Jun-13 07:00N 45°30' W 073°31'4384375736.9
2018-Jun-13 07:00N 46°51' E 031°58'556998760.5
2018-Jun-13 06:56N 25°44' W 080°09'12292829.9
2018-Jun-13 06:30N 45°30' W 073°31'122979036.1
2018-Jun-13 06:29N 25°44' W 080°09'556959490.7
2018-Jun-13 06:24N 46°51' E 031°58'438411305.4
2018-Jun-13 06:01N 45°29' W 073°31'4384358688.2
2018-Jun-13 06:00N 46°51' E 031°58'5569100241.9
2018-Jun-13 05:56N 25°44' W 080°09'12272838.4
2018-Jun-13 05:31N 45°27' W 073°30'4385358778.5
2018-Jun-13 05:30N 46°51' E 031°58'5569911289.7
2018-Jun-13 05:29N 25°44' W 080°09'12242541.9
2018-Jun-13 05:01N 45°24' W 073°32'122466782.9
2018-Jun-13 04:59N 25°44' W 080°09'5569127696.7
2018-Jun-13 04:57N 46°51' E 031°58'438910019.8
2018-Jun-13 04:31N 45°24' W 073°34'4389367471.9
2018-Jun-13 04:30N 46°51' E 031°58'5569911289.7
2018-Jun-13 04:29N 25°44' W 080°09'12242496.2
2018-Jun-13 04:00N 45°24' W 073°35'43901128765.2
2018-Jun-13 04:00N 46°51' E 031°58'5569954684.5
2018-Jun-13 03:59N 25°44' W 080°09'556911269.5
2018-Jun-13 03:30N 46°51' E 031°58'4392510039.3
2018-Jun-13 03:29N 45°24' W 073°38'12238305.9
2018-Jun-13 03:20N 25°44' W 080°09'12233665.6
2018-Jun-13 03:00N 45°25' W 073°41'439472561.0
2018-Jun-13 02:57N 46°51' E 031°58'5569100745.6
2018-Jun-13 02:53N 25°44' W 080°09'  
Track history (hours):
 
Tides and Currents Weather Stations Pressure Air Temp Water Temp Dewpoint Dewpoint Depression Visibility Wind Speed Wind Dir Waves Ship Positions

Valiant

Last reported at 2018-Jun-23 02:30 UTC. Time now 2018-Jun-23 02:56 UTC.
Position N 46°42' W 092°01'.

Length 11 m.

Type: Port tender. MMSI: 236111176.

Date/timePositionNaut miles runAvg speedWind from/ knotsBaromVisibWave heightAir tempDewpointWater temp
2018-Jun-23 02:30N 46°42' W 092°01'50953668387.7
2018-Jun-23 02:30N 46°51' E 031°58'6077428981.9
2018-Jun-23 02:30N 29°33' W 095°02'10382141.9
2018-Jun-23 02:00N 46°42' W 092°01'50954585484.6
2018-Jun-23 02:00N 46°51' E 031°58'60771041814.9
2018-Jun-23 02:00N 29°33' W 095°02'8233360.4
2018-Jun-23 01:45N 25°44' W 080°09'13835582.1
2018-Jun-23 01:30N 46°42' W 092°01'50953668387.7
2018-Jun-23 01:30N 46°51' E 031°58'607775182.2
2018-Jun-23 01:26N 29°33' W 095°02'8234858.7
2018-Jun-23 01:15N 25°44' W 080°09'13835570.3
2018-Jun-23 01:00N 46°42' W 092°01'50953668284.3
2018-Jun-23 01:00N 46°51' E 031°58'55696682785.8
2018-Jun-23 01:00N 25°44' W 080°09'82337517.2
2018-Jun-23 00:59N 29°33' W 095°02'10392184.4
2018-Jun-23 00:30N 46°43' W 091°60'50933667232.1
2018-Jun-23 00:30N 46°51' E 031°58'6077428983.3
2018-Jun-23 00:30N 29°33' W 095°02'8233482.8
2018-Jun-23 00:15N 25°44' W 080°09'13855582.2
2018-Jun-23 00:00N 46°46' W 091°56'50883663549.7
2018-Jun-23 00:00N 46°51' E 031°58'6077128694.8
2018-Jun-22 23:58N 29°33' W 095°02'823269445.5
2018-Jun-22 23:57N 25°44' W 080°09'13843085.7
2018-Jun-22 23:30N 46°45' W 091°56'50894580286.5
2018-Jun-22 23:30N 46°51' E 031°58'607723754.7
2018-Jun-22 23:15N 29°33' W 095°02'607724889.8
2018-Jun-22 23:00N 46°51' E 031°58'50861144373.9
2018-Jun-22 23:00N 46°45' W 091°52'104324377.1
2018-Jun-22 22:58N 29°33' W 095°02'10472317.0
2018-Jun-22 22:30N 46°48' W 091°44'50784570398.7
2018-Jun-22 22:30N 46°51' E 031°58'6077420731.6
2018-Jun-22 22:30N 29°33' W 095°02'82323337.6
2018-Jun-22 22:27N 25°44' W 080°09'556912367.9
2018-Jun-22 22:00N 46°51' E 031°58'556920048374.4
2018-Jun-22 22:00N 25°44' W 080°09'1383331940.5
2018-Jun-22 22:00N 46°51' W 091°36'105024396.1
2018-Jun-22 21:58N 29°33' W 095°02'0 0.0
2018-Jun-22 21:31N 29°33' W 095°02'60772430897.9
2018-Jun-22 21:30N 46°51' E 031°58'5062242980.8
2018-Jun-22 21:29N 46°54' W 091°27'138317469.6
2018-Jun-22 21:24N 25°44' W 080°09'556913922.5
2018-Jun-22 21:00N 46°51' E 031°58'5054404348.5
2018-Jun-22 21:00N 46°57' W 091°19'138310057.9
2018-Jun-22 20:51N 25°44' W 080°09'8236279.5
2018-Jun-22 20:44N 29°33' W 095°02'607827765.8
2018-Jun-22 20:30N 46°51' E 031°59'50471297819.5
2018-Jun-22 20:30N 46°60' W 091°11'106239009.5
2018-Jun-22 20:29N 29°33' W 095°02'82343586.3
2018-Jun-22 20:27N 25°44' W 080°09'13833063.8
2018-Jun-22 20:00N 47°03' W 091°03'5039283428.4
2018-Jun-22 19:59N 46°51' E 031°58'607722462.1
2018-Jun-22 19:43N 29°33' W 095°02'10704863.6
2018-Jun-22 19:30N 47°06' W 090°54'5031532649.7
2018-Jun-22 19:29N 46°51' E 031°58'607732508.3
2018-Jun-22 19:18N 29°33' W 095°02'10743640.3
2018-Jun-22 19:00N 47°08' W 090°46'5023273969.5
2018-Jun-22 18:59N 46°51' E 031°58'0 0.0
2018-Jun-22 18:29N 46°51' E 031°58'607718051.3
2018-Jun-22 18:09N 29°33' W 095°01'1 3.9
2018-Jun-22 18:00N 29°33' W 095°02'6077287878.0
2018-Jun-22 17:59N 46°51' E 031°58'556914644.5
2018-Jun-22 17:36N 25°44' W 080°09'137917927.1
2018-Jun-22 17:32N 47°13' W 090°19'108228233.0
2018-Jun-22 17:29N 29°33' W 095°02'60771367379.9
2018-Jun-22 17:29N 46°51' E 031°58'5001692387.9
2018-Jun-22 17:29N 47°13' W 090°19'10832295.1
2018-Jun-22 17:00N 29°33' W 095°02'6077284130.4
2018-Jun-22 16:59N 46°51' E 031°58'0 0.0
2018-Jun-22 16:29N 46°51' E 031°58'6077210366.1
2018-Jun-22 16:27N 29°33' W 095°02'82316196.1
2018-Jun-22 16:24N 25°44' W 080°09'556913250.7
2018-Jun-22 15:59N 46°51' E 031°58'6077295649.5
2018-Jun-22 15:58N 29°33' W 095°02'607712675.6
2018-Jun-22 15:29N 46°51' E 031°58'60771682929.5
2018-Jun-22 15:29N 29°33' W 095°02'8232981.8
2018-Jun-22 15:12N 25°44' W 080°09'0 0.0
2018-Jun-22 15:00N 25°44' W 080°09'556979557.0
2018-Jun-22 14:56N 46°51' E 031°58'556912959.5
2018-Jun-22 14:30N 25°44' W 080°09'5569274635.3
2018-Jun-22 14:29N 46°51' E 031°58'607734078.0
2018-Jun-22 14:19N 29°33' W 095°02'8232729.2
2018-Jun-22 14:00N 25°44' W 080°09'5569274635.3
2018-Jun-22 13:59N 46°51' E 031°58'60771988922.4
2018-Jun-22 13:59N 29°33' W 095°02'8231729.3
2018-Jun-22 13:30N 25°44' W 080°09'5569267311.7
2018-Jun-22 13:29N 46°51' E 031°58'6077212408.7
2018-Jun-22 13:27N 29°33' W 095°02'8231826.2
2018-Jun-22 13:00N 25°44' W 080°09'5569270924.0
2018-Jun-22 12:59N 46°51' E 031°58'6077164496.8
2018-Jun-22 12:57N 29°33' W 095°02'8231861.7
2018-Jun-22 12:30N 25°44' W 080°09'5569270924.0
2018-Jun-22 12:29N 46°51' E 031°58'6077132594.4
2018-Jun-22 12:26N 29°33' W 095°02'0 0.0
2018-Jun-22 12:00N 29°33' W 095°02'6077486179.1
2018-Jun-22 11:59N 46°51' E 031°58'5569187368.0
2018-Jun-22 11:57N 25°44' W 080°09'556911841.9
2018-Jun-22 11:29N 46°51' E 031°58'5569190936.9
2018-Jun-22 11:27N 25°44' W 080°09'823102203.8
2018-Jun-22 11:27N 29°33' W 095°02'607713124.2
2018-Jun-22 10:59N 46°51' E 031°58'60771682930.4
2018-Jun-22 10:59N 29°33' W 095°02'82332570.4
2018-Jun-22 10:57N 25°44' W 080°09'8231796.3
2018-Jun-22 10:30N 29°33' W 095°02'6077486178.7
2018-Jun-22 10:29N 46°51' E 031°58'556924271.6
2018-Jun-22 10:15N 25°44' W 080°09'8233293.2
2018-Jun-22 10:00N 29°33' W 095°02'6077295649.7
2018-Jun-22 09:59N 46°51' E 031°58'556943301.0
2018-Jun-22 09:52N 25°44' W 080°09'8232346.7
2018-Jun-22 09:30N 29°33' W 095°02'6077295649.9
2018-Jun-22 09:29N 46°51' E 031°58'556943114.8
2018-Jun-22 09:21N 25°44' W 080°09'556915017.5
2018-Jun-22 08:59N 46°51' E 031°58'607723884.4
2018-Jun-22 08:44N 29°33' W 095°02'607724721.0
2018-Jun-22 08:29N 46°51' E 031°58'6077295649.5
2018-Jun-22 08:28N 29°33' W 095°02'607712675.6
2018-Jun-22 07:59N 46°51' E 031°58'60771562721.6
2018-Jun-22 07:59N 29°33' W 095°02'0 0.0
2018-Jun-22 07:30N 29°33' W 095°02'6077295649.5
2018-Jun-22 07:29N 46°51' E 031°58'0 0.0
2018-Jun-22 06:59N 46°51' E 031°58'607734078.0
2018-Jun-22 06:49N 29°33' W 095°02'607718909.3
2018-Jun-22 06:29N 46°51' E 031°58'6077287869.4
2018-Jun-22 06:28N 29°33' W 095°02'8233978.4
2018-Jun-22 06:16N 25°44' W 080°09'556920478.4
2018-Jun-22 05:59N 46°51' E 031°58'607750294.5
2018-Jun-22 05:52N 29°33' W 095°02'607716027.9
2018-Jun-22 05:29N 46°51' E 031°58'607796379.1
2018-Jun-22 05:25N 29°33' W 095°02'607713908.5
2018-Jun-22 04:59N 46°51' E 031°58'607758812.1
2018-Jun-22 04:53N 29°33' W 095°02'607715310.1
2018-Jun-22 04:29N 46°51' E 031°58'6077287869.5
2018-Jun-22 04:28N 29°33' W 095°02'823113994.7
2018-Jun-22 04:28N 25°44' W 080°09'556911814.0
2018-Jun-22 03:59N 46°51' E 031°58'6077475609.6
2018-Jun-22 03:58N 29°33' W 095°02'0 0.0
2018-Jun-22 03:30N 29°33' W 095°02'6077303861.7
2018-Jun-22 03:29N 46°51' E 031°58'0 0.0
2018-Jun-22 02:59N 46°51' E 031°58'6077455792.2
2018-Jun-22 02:58N 29°33' W 095°02'12283312.0
2018-Jun-22 02:36N 40°43' W 074°03'122812816.0
2018-Jun-22 02:30N 29°33' W 095°02'6077299699.2
2018-Jun-22 02:29N 46°51' E 031°58'460816587257.1
2018-Jun-22 02:29N 40°42' W 074°02'46089225.4
2018-Jun-22 01:59N 46°51' E 031°58'6077160868.1
2018-Jun-22 01:57N 29°33' W 095°02'607713147.9
2018-Jun-22 01:29N 46°51' E 031°58'607739278.5
2018-Jun-22 01:20N 29°33' W 095°02'607717601.1
2018-Jun-22 00:59N 46°51' E 031°58'6077280487.3
2018-Jun-22 00:58N 29°33' W 095°02'607712697.6
2018-Jun-22 00:29N 46°51' E 031°58'0 0.0
2018-Jun-21 23:59N 46°51' E 031°58'556943965.7
2018-Jun-21 23:52N 25°44' W 080°09'556914928.1
2018-Jun-21 23:29N 46°51' E 031°58'0 0.0
2018-Jun-21 22:59N 46°51' E 031°58'0 0.0
2018-Jun-21 22:29N 46°51' E 031°58'0 0.0
2018-Jun-21 21:59N 46°51' E 031°58'0 0.0
2018-Jun-21 21:29N 46°51' E 031°58'0 0.0
2018-Jun-21 20:59N 46°51' E 031°58'460647379.8
2018-Jun-21 20:53N 40°42' W 074°01'460611436.5
2018-Jun-21 20:29N 46°51' E 031°58'0 0.0
2018-Jun-21 19:59N 46°51' E 031°58'0 0.0
2018-Jun-21 19:29N 46°51' E 031°58'0 0.0
2018-Jun-21 18:56N 46°51' E 031°58'0 0.0
2018-Jun-21 18:29N 46°51' E 031°58'0 0.0
2018-Jun-21 17:59N 46°51' E 031°58'0 0.0
2018-Jun-21 17:29N 46°51' E 031°58'0 0.0
2018-Jun-21 16:59N 46°51' E 031°58'434610584.7
2018-Jun-21 16:35N 46°02' W 073°08'434648735.7
2018-Jun-21 16:29N 46°51' E 031°58'0 0.0
2018-Jun-21 15:56N 46°51' E 031°58'0 0.0
2018-Jun-21 15:29N 46°51' E 031°58'0 0.0
2018-Jun-21 14:59N 46°51' E 031°58'556944062.4
2018-Jun-21 14:52N 25°44' W 080°09'556914905.9
2018-Jun-21 14:29N 46°51' E 031°58'607776230.3
2018-Jun-21 14:24N 29°33' W 095°02'82317854.7
2018-Jun-21 14:22N 25°44' W 080°09'556914883.7
2018-Jun-21 13:59N 46°51' E 031°58'6077270100.2
2018-Jun-21 13:58N 29°33' W 095°02'823211707.2
2018-Jun-21 13:58N 25°44' W 080°09'556911751.7
2018-Jun-21 13:29N 46°51' E 031°58'556924659.7
2018-Jun-21 13:16N 25°44' W 080°09'556920333.0
2018-Jun-21 12:59N 46°51' E 031°58'60771041812.5
2018-Jun-21 12:59N 29°33' W 095°02'82340600.6
2018-Jun-21 12:58N 25°44' W 080°09'12013187.9
2018-Jun-21 12:35N 45°33' W 083°30'112.9
2018-Jun-21 12:30N 45°32' W 083°30'4796287762.6
2018-Jun-21 12:29N 46°51' E 031°58'5569217917.0
2018-Jun-21 12:28N 25°44' W 080°09'11942595.7
2018-Jun-21 12:00N 45°27' W 083°24'4796332055.2
2018-Jun-21 11:59N 46°51' E 031°58'556931672.0
2018-Jun-21 11:49N 25°44' W 080°09'8234796.0
2018-Jun-21 11:38N 29°33' W 095°02'607739923.6
2018-Jun-21 11:29N 46°51' E 031°58'5569215573.9
2018-Jun-21 11:28N 25°44' W 080°09'1188534502.9
2018-Jun-21 11:28N 45°21' W 083°19'110055779.7
2018-Jun-21 11:26N 29°33' W 095°02'607713446.9
2018-Jun-21 10:59N 46°51' E 031°58'5569213280.6
2018-Jun-21 10:58N 25°44' W 080°09'823155996.0
2018-Jun-21 10:57N 29°33' W 095°02'607712953.3
2018-Jun-21 10:29N 46°51' E 031°58'5569220311.8
2018-Jun-21 10:28N 25°44' W 080°09'8238516.9
2018-Jun-21 10:22N 29°33' W 095°02'0 0.0
2018-Jun-21 10:00N 29°33' W 095°02'82322118.5
2018-Jun-21 09:58N 25°44' W 080°09'5569227822.4
2018-Jun-21 09:56N 46°51' E 031°58'0 0.0
2018-Jun-21 09:29N 46°51' E 031°58'5569225262.6
2018-Jun-21 09:28N 25°44' W 080°09'556911710.5
2018-Jun-21 08:59N 46°51' E 031°58'556944551.9
2018-Jun-21 08:52N 25°44' W 080°09'556913112.1
2018-Jun-21 08:26N 46°51' E 031°58'556931924.2
2018-Jun-21 08:16N 25°44' W 080°09'556920189.7
2018-Jun-21 07:59N 46°51' E 031°58'556931873.4
2018-Jun-21 07:49N 25°44' W 080°09'556917135.4
2018-Jun-21 07:29N 46°51' E 031°58'556924781.7
2018-Jun-21 07:16N 25°44' W 080°09'556920210.1
2018-Jun-21 06:59N 46°51' E 031°58'556944750.8
2018-Jun-21 06:52N 25°44' W 080°09'556914839.7
2018-Jun-21 06:29N 46°51' E 031°58'556944453.2
2018-Jun-21 06:22N 25°44' W 080°09'556914861.7
2018-Jun-21 05:59N 46°51' E 031°58'5569222759.7
2018-Jun-21 05:58N 25°44' W 080°09'556911724.2
2018-Jun-21 05:29N 46°51' E 031°58'5569227822.4
2018-Jun-21 05:28N 25°44' W 080°09'556911703.7
2018-Jun-21 04:59N 46°51' E 031°58'556944750.8
2018-Jun-21 04:52N 25°44' W 080°09'556914839.7
2018-Jun-21 04:29N 46°51' E 031°58'556924781.7
2018-Jun-21 04:16N 25°44' W 080°09'556920210.1
2018-Jun-21 03:59N 46°51' E 031°58'556944850.9
2018-Jun-21 03:52N 25°44' W 080°09'556914828.7
2018-Jun-21 03:29N 46°51' E 031°58'5569227822.4
2018-Jun-21 03:28N 25°44' W 080°09'556911710.5
2018-Jun-21 02:59N 46°51' E 031°58'460734918.2
2018-Jun-21 02:51N 40°43' W 074°03'95010300.7
2018-Jun-21 02:46N 25°44' W 080°09'556920169.4
2018-Jun-21 02:29N 46°51' E 031°58'4608199875.3
2018-Jun-21 02:28N 40°41' W 074°03'9499408.3
2018-Jun-21 02:22N 25°44' W 080°09'556914817.7
2018-Jun-21 01:59N 46°51' E 031°58'0 0.0
2018-Jun-21 01:29N 46°51' E 031°58'0 0.0
2018-Jun-21 00:59N 46°51' E 031°58'0 0.0
2018-Jun-21 00:29N 46°51' E 031°58'0 0.0
2018-Jun-20 23:59N 46°51' E 031°58'0 0.0
2018-Jun-20 23:29N 46°51' E 031°58'0 0.0
2018-Jun-20 22:59N 46°51' E 031°58'0 0.0
2018-Jun-20 22:29N 46°51' E 031°58'0 0.0
2018-Jun-20 21:59N 46°51' E 031°58'460412141.4
2018-Jun-20 21:36N 40°43' W 073°58'460438186.7
2018-Jun-20 21:29N 46°51' E 031°58'4607100510.0
2018-Jun-20 21:26N 40°42' W 074°01'1 2.7
2018-Jun-20 21:00N 40°43' W 074°03'4607360568.3
2018-Jun-20 20:59N 46°51' E 031°58'0 0.0
2018-Jun-20 20:29N 46°51' E 031°58'0 0.0
2018-Jun-20 19:59N 46°51' E 031°58'0 0.0
2018-Jun-20 19:29N 46°51' E 031°58'0 0.0
2018-Jun-20 18:59N 46°51' E 031°58'0 0.0
2018-Jun-20 18:29N 46°51' E 031°58'0 0.0
2018-Jun-20 17:59N 46°51' E 031°58'0 0.0
2018-Jun-20 17:29N 46°51' E 031°58'0 0.0
2018-Jun-20 16:59N 46°51' E 031°58'0 0.0
2018-Jun-20 16:29N 46°51' E 031°58'0 0.0
2018-Jun-20 15:59N 46°51' E 031°58'0 0.0
2018-Jun-20 14:44N 46°51' E 031°58'0 0.0
2018-Jun-20 14:29N 46°51' E 031°58'0 0.0
2018-Jun-20 13:59N 46°51' E 031°58'607715224.8
2018-Jun-20 13:35N 29°33' W 095°02'140029297.9
2018-Jun-20 13:32N 45°28' W 073°31'438582217.2
2018-Jun-20 13:29N 46°51' E 031°58'4385117803.8
2018-Jun-20 13:27N 45°28' W 073°31'43859475.2
2018-Jun-20 12:59N 46°51' E 031°58'4385404779.4
2018-Jun-20 12:59N 45°28' W 073°32'43858964.4
2018-Jun-20 12:29N 46°51' E 031°58'438571756.3
2018-Jun-20 12:26N 45°28' W 073°32'43859991.4
2018-Jun-20 11:59N 46°51' E 031°58'438539466.0
2018-Jun-20 11:53N 45°28' W 073°32'438511284.1
2018-Jun-20 11:29N 46°51' E 031°58'4385415431.1
2018-Jun-20 11:29N 45°28' W 073°32'43858954.3
2018-Jun-20 10:59N 46°51' E 031°58'0 0.0
2018-Jun-20 10:29N 46°51' E 031°58'0 0.0
2018-Jun-20 09:59N 46°51' E 031°58'0 0.0
2018-Jun-20 09:29N 46°51' E 031°58'0 0.0
2018-Jun-20 08:59N 46°51' E 031°58'0 0.0
2018-Jun-20 08:29N 46°51' E 031°58'0 0.0
2018-Jun-20 07:59N 46°51' E 031°58'556925123.3
2018-Jun-20 07:46N 25°44' W 080°09'556920008.4
2018-Jun-20 07:29N 46°51' E 031°58'556932440.7
2018-Jun-20 07:19N 25°44' W 080°09'556916961.4
2018-Jun-20 06:59N 46°51' E 031°58'5569257030.4
2018-Jun-20 06:58N 25°44' W 080°09'556911642.5
2018-Jun-20 06:29N 46°51' E 031°58'0 0.0
2018-Jun-20 05:59N 46°51' E 031°58'0 0.0
2018-Jun-20 05:29N 46°51' E 031°58'0 0.0
2018-Jun-20 04:59N 46°51' E 031°58'0 0.0
2018-Jun-20 04:29N 46°51' E 031°58'0 0.0
2018-Jun-20 03:59N 46°51' E 031°58'0 0.0
2018-Jun-20 03:29N 46°51' E 031°58'0 0.0
2018-Jun-20 02:59N 46°51' E 031°58'0 0.0
2018-Jun-20 02:29N 46°51' E 031°58'0 0.0
2018-Jun-20 01:59N 46°51' E 031°58'0 0.0
2018-Jun-20 01:29N 46°51' E 031°58'0 0.0
2018-Jun-20 00:59N 46°51' E 031°58'0 0.0
2018-Jun-20 00:29N 46°51' E 031°58'0 0.0
2018-Jun-19 23:59N 46°51' E 031°58'0 0.0
2018-Jun-19 23:29N 46°51' E 031°58'0 0.0
2018-Jun-19 22:59N 46°51' E 031°58'0 0.0
2018-Jun-19 22:29N 46°51' E 031°58'0 0.0
2018-Jun-19 21:59N 46°51' E 031°58'0 0.0
2018-Jun-19 21:29N 46°51' E 031°58'0 0.0
2018-Jun-19 20:59N 46°51' E 031°58'0 0.0
2018-Jun-19 20:29N 46°51' E 031°58'0 0.0
2018-Jun-19 19:59N 46°51' E 031°58'0 0.0
2018-Jun-19 19:29N 46°51' E 031°58'0 0.0
2018-Jun-19 18:59N 46°51' E 031°58'0 0.0
2018-Jun-19 18:29N 46°51' E 031°58'0 0.0
2018-Jun-19 17:59N 46°51' E 031°58'0 0.0
2018-Jun-19 17:29N 46°51' E 031°58'0 0.0
2018-Jun-19 16:59N 46°51' E 031°58'0 0.0
2018-Jun-19 16:29N 46°51' E 031°58'0 0.0
2018-Jun-19 15:59N 46°51' E 031°58'556920689.7
2018-Jun-19 15:43N 25°44' W 080°09'556924125.6
2018-Jun-19 15:29N 46°51' E 031°58'5569294829.0
2018-Jun-19 15:28N 25°44' W 080°09'556911575.3
2018-Jun-19 14:59N 46°51' E 031°58'556917463.7
2018-Jun-19 14:40N 25°44' W 080°09'556930749.0
2018-Jun-19 14:29N 46°51' E 031°58'5569299229.5
2018-Jun-19 14:28N 25°44' W 080°09'556911568.6
2018-Jun-19 13:59N 46°51' E 031°58'0 0.0
2018-Jun-19 13:26N 46°51' E 031°58'0 0.0
2018-Jun-19 12:59N 46°51' E 031°58'556946951.7
2018-Jun-19 12:52N 25°44' W 080°09'556914612.5
2018-Jun-19 12:29N 46°51' E 031°58'556925442.1
2018-Jun-19 12:16N 25°44' W 080°09'556919791.1
2018-Jun-19 11:59N 46°51' E 031°58'556946951.7
2018-Jun-19 11:52N 25°44' W 080°09'556914601.9
2018-Jun-19 11:29N 46°51' E 031°58'556917494.2
2018-Jun-19 11:10N 25°44' W 080°09'556930655.0
2018-Jun-19 10:59N 46°51' E 031°58'5569303763.1
2018-Jun-19 10:58N 25°44' W 080°09'556911561.9
2018-Jun-19 10:29N 46°51' E 031°58'5569303763.0
2018-Jun-19 10:28N 25°44' W 080°09'556910474.6
2018-Jun-19 09:56N 46°51' E 031°58'0 0.0
2018-Jun-19 09:23N 46°51' E 031°58'556925539.3
2018-Jun-19 09:10N 25°44' W 080°09'556930608.2
2018-Jun-19 08:59N 46°51' E 031°58'556947061.9
2018-Jun-19 08:52N 25°44' W 080°09'556912901.1
2018-Jun-19 08:26N 46°51' E 031°58'556920775.5
2018-Jun-19 08:10N 25°44' W 080°09'556930608.2
2018-Jun-19 07:59N 46°51' E 031°58'556947172.6
2018-Jun-19 07:52N 25°44' W 080°09'556914580.6
2018-Jun-19 07:29N 46°51' E 031°58'556947172.6
2018-Jun-19 07:22N 25°44' W 080°09'556914580.6
2018-Jun-19 06:59N 46°51' E 031°58'5569308436.5
2018-Jun-19 06:58N 25°44' W 080°09'556911561.9
2018-Jun-19 06:29N 46°51' E 031°58'556981830.1
2018-Jun-19 06:25N 25°44' W 080°09'556912884.6
2018-Jun-19 05:59N 46°51' E 031°58'5569313255.9
2018-Jun-19 05:58N 25°44' W 080°09'556911548.6
2018-Jun-19 05:29N 46°51' E 031°58'556925604.6
2018-Jun-19 05:16N 25°44' W 080°09'556919713.2
2018-Jun-19 04:59N 46°51' E 031°58'556982165.5
2018-Jun-19 04:55N 25°44' W 080°09'556912884.6
2018-Jun-19 04:29N 46°51' E 031°58'556947283.9
2018-Jun-19 04:22N 25°44' W 080°09'556914570.0
2018-Jun-19 03:59N 46°51' E 031°58'0 0.0
2018-Jun-19 03:29N 46°51' E 031°58'0 0.0
2018-Jun-19 02:59N 46°51' E 031°58'0 0.0
2018-Jun-19 02:29N 46°51' E 031°58'0 0.0
2018-Jun-19 01:59N 46°51' E 031°58'0 0.0
2018-Jun-19 01:29N 46°51' E 031°58'0 0.0
2018-Jun-19 00:59N 46°51' E 031°58'0 0.0
2018-Jun-19 00:29N 46°51' E 031°58'0 0.0
2018-Jun-18 23:59N 46°51' E 031°58'0 0.0
2018-Jun-18 23:29N 46°51' E 031°58'0 0.0
2018-Jun-18 22:59N 46°51' E 031°58'621616877.3
2018-Jun-18 22:37N 53°51' W 130°02'324.2
2018-Jun-18 22:30N 53°54' W 130°05'62161316227.3
2018-Jun-18 22:29N 46°51' E 031°58'621212779.9
2018-Jun-18 22:00N 54°03' W 130°16'6212438526.7
2018-Jun-18 21:59N 46°51' E 031°58'620412763.2
2018-Jun-18 21:30N 54°15' W 130°21'6204446711.8
2018-Jun-18 21:29N 46°51' E 031°58'0 0.0
2018-Jun-18 20:59N 46°51' E 031°58'619919888.3
2018-Jun-18 20:41N 54°19' W 130°19'619932912.5
2018-Jun-18 20:29N 46°51' E 031°58'0 0.0
2018-Jun-18 19:59N 46°51' E 031°58'0 0.0
2018-Jun-18 19:29N 46°51' E 031°58'0 0.0
2018-Jun-18 18:59N 46°51' E 031°58'0 0.0
2018-Jun-18 18:29N 46°51' E 031°58'0 0.0
2018-Jun-18 17:59N 46°51' E 031°58'0 0.0
2018-Jun-18 17:29N 46°51' E 031°58'0 0.0
2018-Jun-18 16:59N 46°51' E 031°58'0 0.0
2018-Jun-18 16:29N 46°51' E 031°58'0 0.0
2018-Jun-18 15:59N 46°51' E 031°58'0 0.0
2018-Jun-18 15:29N 46°51' E 031°58'0 0.0
2018-Jun-18 14:59N 46°51' E 031°58'0 0.0
2018-Jun-18 14:29N 46°51' E 031°58'0 0.0
2018-Jun-18 13:59N 46°51' E 031°58'0 0.0
2018-Jun-18 13:29N 46°51' E 031°58'0 0.0
2018-Jun-18 12:59N 46°51' E 031°58'0 0.0
2018-Jun-18 12:29N 46°51' E 031°58'0 0.0
2018-Jun-18 11:59N 46°51' E 031°58'0 0.0
2018-Jun-18 11:23N 46°51' E 031°58'0 0.0
2018-Jun-18 10:59N 46°51' E 031°58'556925935.8
2018-Jun-18 10:46N 25°44' W 080°09'556919540.3
2018-Jun-18 10:29N 46°51' E 031°58'5569378271.2
2018-Jun-18 10:28N 25°44' W 080°09'556911469.3
2018-Jun-18 09:59N 46°51' E 031°58'556925935.8
2018-Jun-18 09:46N 25°44' W 080°09'556919540.3
2018-Jun-18 09:29N 46°51' E 031°58'556948426.0
2018-Jun-18 09:22N 25°44' W 080°09'556914464.9
2018-Jun-18 08:59N 46°51' E 031°58'556948426.0
2018-Jun-18 08:52N 25°44' W 080°09'556914454.5
2018-Jun-18 08:29N 46°51' E 031°58'556948661.1
2018-Jun-18 08:22N 25°44' W 080°09'556914454.5
2018-Jun-18 07:59N 46°51' E 031°58'5569371266.2
2018-Jun-18 07:58N 25°44' W 080°09'556911475.9
2018-Jun-18 07:29N 46°51' E 031°58'5569385545.5
2018-Jun-18 07:28N 25°44' W 080°09'556911469.3
2018-Jun-18 06:59N 46°51' E 031°58'556949018.0
2018-Jun-18 06:52N 25°44' W 080°09'556914412.9
2018-Jun-18 06:29N 46°51' E 031°58'0 0.0
2018-Jun-18 05:59N 46°51' E 031°58'5569409150.5
2018-Jun-18 05:58N 25°44' W 080°09'556911449.7
2018-Jun-18 05:29N 46°51' E 031°58'0 0.0
2018-Jun-18 04:59N 46°51' E 031°58'556926003.1
2018-Jun-18 04:46N 25°44' W 080°09'556919483.3
2018-Jun-18 04:29N 46°51' E 031°58'0 0.0
2018-Jun-18 03:59N 46°51' E 031°58'556933980.3
2018-Jun-18 03:49N 25°44' W 080°09'556916568.9
2018-Jun-18 03:29N 46°51' E 031°58'0 0.0
2018-Jun-18 02:59N 46°51' E 031°58'0 0.0
2018-Jun-18 02:29N 46°51' E 031°58'0 0.0
2018-Jun-18 01:59N 46°51' E 031°58'0 0.0
2018-Jun-18 01:29N 46°51' E 031°58'2185.9
2018-Jun-18 01:15N 46°38' E 031°35'555525378.7
2018-Jun-18 01:01N 25°44' W 080°09'5569150739.6
2018-Jun-18 00:59N 46°51' E 031°58'21477.7
2018-Jun-18 00:57N 46°38' E 031°35'248.0
2018-Jun-18 00:54N 46°36' E 031°37'555730309.6
2018-Jun-18 00:43N 25°44' W 080°09'556923558.6
2018-Jun-18 00:29N 46°51' E 031°58'21474.6
2018-Jun-18 00:27N 46°38' E 031°35'2146.0
2018-Jun-17 23:59N 46°51' E 031°58'21477.7
2018-Jun-17 23:57N 46°38' E 031°35'212.8
2018-Jun-17 23:48N 46°36' E 031°37'2166.1
2018-Jun-17 23:29N 46°51' E 031°58'21270.5
2018-Jun-17 23:25N 46°38' E 031°35'217.0
2018-Jun-17 23:18N 46°36' E 031°37'2166.1
2018-Jun-17 22:59N 46°51' E 031°58'0 0.0
2018-Jun-17 22:29N 46°51' E 031°58'0 0.0
2018-Jun-17 21:59N 46°51' E 031°58'0 0.0
2018-Jun-17 21:29N 46°51' E 031°58'0 0.0
2018-Jun-17 20:59N 46°51' E 031°58'0 0.0
2018-Jun-17 20:29N 46°51' E 031°58'0 0.0
2018-Jun-17 19:59N 46°51' E 031°58'460710372.8
2018-Jun-17 19:33N 40°43' W 074°03'0 0.0
2018-Jun-17 19:30N 40°43' W 074°03'4607318964.3
2018-Jun-17 19:29N 46°51' E 031°58'0 0.0
2018-Jun-17 18:59N 46°51' E 031°58'460811008.9
2018-Jun-17 18:34N 40°41' W 074°03'460856622.6
2018-Jun-17 18:29N 46°51' E 031°58'4609255253.1
2018-Jun-17 18:28N 40°42' W 074°04'46099562.8
2018-Jun-17 17:59N 46°51' E 031°58'556989103.9
2018-Jun-17 17:55N 25°44' W 080°09'556912737.2
2018-Jun-17 17:29N 46°51' E 031°58'0 0.0
2018-Jun-17 16:59N 46°51' E 031°58'0 0.0
2018-Jun-17 16:29N 46°51' E 031°58'0 0.0
2018-Jun-17 15:59N 46°51' E 031°58'0 0.0
2018-Jun-17 15:29N 46°51' E 031°58'460670263.0
2018-Jun-17 15:25N 40°43' W 074°02'460610602.3
2018-Jun-17 14:59N 46°51' E 031°58'0 0.0
2018-Jun-17 14:29N 46°51' E 031°58'0 0.0
2018-Jun-17 13:59N 46°51' E 031°58'0 0.0
2018-Jun-17 13:29N 46°51' E 031°58'556926379.4
2018-Jun-17 13:17N 25°44' W 080°09'556919277.3
2018-Jun-17 12:59N 46°51' E 031°58'0 0.0
2018-Jun-17 12:29N 46°51' E 031°58'0 0.0
2018-Jun-17 11:59N 46°51' E 031°58'0 0.0
2018-Jun-17 11:29N 46°51' E 031°58'442949513.0
2018-Jun-17 11:24N 45°12' W 074°18'410.4
2018-Jun-17 11:01N 45°14' W 074°13'4424206829.5
2018-Jun-17 10:59N 46°51' E 031°58'44199138.5
2018-Jun-17 10:30N 45°14' W 074°07'4419265167.8
2018-Jun-17 10:29N 46°51' E 031°58'44159230.8
2018-Jun-17 10:01N 45°14' W 074°01'441536291.1
2018-Jun-17 09:53N 46°51' E 031°58'0 0.1
2018-Jun-17 09:29N 46°51' E 031°58'4410244239.4
2018-Jun-17 09:28N 45°17' W 073°56'12123541.9
2018-Jun-17 09:08N 25°44' W 080°09'121310302.8
2018-Jun-17 09:01N 45°18' W 073°56'4408200893.5
2018-Jun-17 08:59N 46°51' E 031°58'44089220.8
2018-Jun-17 08:31N 45°19' W 073°55'4408200873.7
2018-Jun-17 08:29N 46°51' E 031°58'44089219.9
2018-Jun-17 08:01N 45°19' W 073°55'4408203429.4
2018-Jun-17 07:59N 46°51' E 031°58'44078928.4
2018-Jun-17 07:30N 45°19' W 073°55'4407689817.7
2018-Jun-17 07:29N 46°51' E 031°58'44049121.5
2018-Jun-17 07:00N 45°21' W 073°51'4404251637.8
2018-Jun-17 06:59N 46°51' E 031°58'43989119.9
2018-Jun-17 06:30N 45°24' W 073°46'4398251303.4
2018-Jun-17 06:29N 46°51' E 031°58'556917948.4
2018-Jun-17 06:11N 25°44' W 080°09'12237100.7
2018-Jun-17 06:00N 45°25' W 073°41'4394251082.4
2018-Jun-17 05:59N 46°51' E 031°58'556934685.8
2018-Jun-17 05:50N 25°44' W 080°09'556916406.2
2018-Jun-17 05:29N 46°51' E 031°58'4391161317.2
2018-Jun-17 05:28N 45°24' W 073°37'2 4.2
2018-Jun-17 05:00N 45°24' W 073°34'4389367480.9
2018-Jun-17 04:59N 46°51' E 031°58'43899160.0
2018-Jun-17 04:30N 45°24' W 073°34'4389213526.7
2018-Jun-17 04:29N 46°51' E 031°58'556921350.8
2018-Jun-17 04:14N 25°44' W 080°09'12245629.6
2018-Jun-17 04:01N 45°25' W 073°32'4388199947.0
2018-Jun-17 03:59N 46°51' E 031°58'556993248.3
2018-Jun-17 03:56N 25°44' W 080°09'12272933.6
2018-Jun-17 03:31N 45°27' W 073°30'4385199814.0
2018-Jun-17 03:29N 46°51' E 031°58'556913573.7
2018-Jun-17 03:05N 25°44' W 080°09'556962069.3
2018-Jun-17 02:59N 46°51' E 031°58'556921396.3
2018-Jun-17 02:44N 25°44' W 080°09'556923258.0
2018-Jun-17 02:29N 46°51' E 031°58'438422226.5
2018-Jun-17 02:17N 45°30' W 073°31'438414464.5
2018-Jun-17 01:59N 46°51' E 031°58'0 0.0
2018-Jun-17 01:29N 46°51' E 031°58'0 0.0
2018-Jun-17 00:59N 46°51' E 031°58'0 0.0
2018-Jun-17 00:29N 46°51' E 031°58'437314631.5
2018-Jun-17 00:11N 45°41' W 073°27'437317415.4
2018-Jun-16 23:56N 46°51' E 031°58'43713933799.6
2018-Jun-16 23:56N 45°43' W 073°26'43719737.1
2018-Jun-16 23:29N 46°51' E 031°58'43663143746.0
2018-Jun-16 23:29N 45°46' W 073°22'141641107.2
2018-Jun-16 23:27N 29°33' W 095°02'14203201.6
2018-Jun-16 23:00N 45°49' W 073°18'4361212168.7
2018-Jun-16 22:59N 46°51' E 031°58'60811990042.3
2018-Jun-16 22:59N 29°32' W 095°05'14272880.5
2018-Jun-16 22:29N 45°53' W 073°14'43563136331.4
2018-Jun-16 22:29N 46°51' E 031°58'6081216733.4
2018-Jun-16 22:28N 29°32' W 095°05'14313171.8
2018-Jun-16 22:00N 45°57' W 073°12'4352211721.3
2018-Jun-16 21:59N 46°51' E 031°58'607799445.2
2018-Jun-16 21:56N 29°33' W 095°01'14323423.6
2018-Jun-16 21:30N 46°02' W 073°10'4348211501.5
2018-Jun-16 21:29N 46°51' E 031°58'607735807.1
2018-Jun-16 21:19N 29°33' W 095°02'14364633.7
2018-Jun-16 21:00N 46°04' W 073°05'4342214149.3
2018-Jun-16 20:59N 46°51' E 031°58'0 0.0
2018-Jun-16 20:29N 46°51' E 031°58'0 0.0
2018-Jun-16 19:59N 46°51' E 031°58'0 0.0
2018-Jun-16 19:29N 46°51' E 031°58'0 0.0
2018-Jun-16 18:59N 46°51' E 031°58'556913638.3
2018-Jun-16 18:35N 25°44' W 080°09'556960752.6
2018-Jun-16 18:29N 46°51' E 031°58'556926660.1
2018-Jun-16 18:17N 25°44' W 080°09'556919130.1
2018-Jun-16 17:59N 46°51' E 031°58'0 0.0
2018-Jun-16 17:29N 46°51' E 031°58'0 0.0
2018-Jun-16 16:59N 46°51' E 031°58'556918045.3
2018-Jun-16 16:41N 25°44' W 080°09'556929097.8
2018-Jun-16 16:29N 46°51' E 031°58'556935111.0
2018-Jun-16 16:20N 25°44' W 080°09'556916312.8
2018-Jun-16 15:59N 46°51' E 031°58'556951274.6
2018-Jun-16 15:53N 25°44' W 080°09'556914238.9
2018-Jun-16 15:29N 46°51' E 031°58'5569646721.8
2018-Jun-16 15:29N 25°44' W 080°09'556911326.8
2018-Jun-16 14:59N 46°51' E 031°58'0 0.0
2018-Jun-16 14:29N 46°51' E 031°58'0 0.0
2018-Jun-16 13:59N 46°51' E 031°58'556912165.3
2018-Jun-16 13:32N 25°44' W 080°09'5569131897.2
2018-Jun-16 13:29N 46°51' E 031°58'556996852.1
2018-Jun-16 13:26N 25°44' W 080°09'556912585.3
2018-Jun-16 12:59N 46°51' E 031°58'5569742532.4
2018-Jun-16 12:59N 25°44' W 080°09'556911307.6
2018-Jun-16 12:29N 46°51' E 031°58'556951804.6
2018-Jun-16 12:23N 25°44' W 080°09'133516572.3
2018-Jun-16 12:18N 46°47' W 071°14'423713583.9
2018-Jun-16 11:59N 46°51' E 031°58'4234435446.0
2018-Jun-16 11:59N 46°50' W 071°11'42348639.8
2018-Jun-16 11:29N 46°51' E 031°58'5569716013.4
2018-Jun-16 11:29N 25°44' W 080°09'556911307.6
2018-Jun-16 10:59N 46°51' E 031°58'0 0.0
2018-Jun-16 10:29N 46°51' E 031°58'556918094.2
2018-Jun-16 10:11N 25°44' W 080°09'556928971.6
2018-Jun-16 09:59N 46°51' E 031°58'5569716013.4
2018-Jun-16 09:59N 25°44' W 080°09'556911314.0
2018-Jun-16 09:29N 46°51' E 031°58'556913684.9
2018-Jun-16 09:05N 25°44' W 080°09'556959845.8
2018-Jun-16 08:59N 46°51' E 031°58'556918143.3
2018-Jun-16 08:41N 25°44' W 080°09'556928846.6
2018-Jun-16 08:29N 46°51' E 031°58'556921627.1
2018-Jun-16 08:14N 25°44' W 080°09'556922964.9
2018-Jun-16 07:59N 46°51' E 031°58'556998276.3
2018-Jun-16 07:56N 25°44' W 080°09'556912561.6
2018-Jun-16 07:29N 46°51' E 031°58'556913684.9
2018-Jun-16 07:05N 25°44' W 080°09'556959845.9
2018-Jun-16 06:59N 46°51' E 031°58'556926874.5
2018-Jun-16 06:47N 25°44' W 080°09'556919021.2
2018-Jun-16 06:29N 46°51' E 031°58'5569771091.3
2018-Jun-16 06:29N 25°44' W 080°09'556910265.4
2018-Jun-16 05:56N 46°51' E 031°58'5569742532.1
2018-Jun-16 05:56N 25°44' W 080°09'556912577.4
2018-Jun-16 05:29N 46°51' E 031°58'556998276.3
2018-Jun-16 05:26N 25°44' W 080°09'556912561.6
2018-Jun-16 04:59N 46°51' E 031°58'5569835347.9
2018-Jun-16 04:59N 25°44' W 080°09'556911288.5
2018-Jun-16 04:29N 46°51' E 031°58'0 0.0
2018-Jun-16 03:59N 46°51' E 031°58'556918176.2
2018-Jun-16 03:41N 25°44' W 080°09'556928763.8
2018-Jun-16 03:29N 46°51' E 031°58'556918159.8
2018-Jun-16 03:11N 25°44' W 080°09'556928805.1
2018-Jun-16 02:59N 46°51' E 031°58'5569911289.0
2018-Jun-16 02:59N 25°44' W 080°09'556911275.8
2018-Jun-16 02:29N 46°51' E 031°58'556921768.1
2018-Jun-16 02:14N 25°44' W 080°09'556922808.2
2018-Jun-16 01:59N 46°51' E 031°58'0 0.0
2018-Jun-16 01:29N 46°51' E 031°58'556915638.4
2018-Jun-16 01:08N 25°44' W 080°09'556938703.4
2018-Jun-16 00:59N 46°51' E 031°58'556935673.3
2018-Jun-16 00:50N 25°44' W 080°09'556916194.2
2018-Jun-16 00:29N 46°51' E 031°58'0 0.0
2018-Jun-15 23:59N 46°51' E 031°58'0 0.0
2018-Jun-15 23:29N 46°51' E 031°58'0 0.0
2018-Jun-15 22:59N 46°51' E 031°58'0 0.0
2018-Jun-15 22:26N 46°51' E 031°58'0 0.0
2018-Jun-15 21:53N 46°51' E 031°58'0 0.0
2018-Jun-15 21:29N 46°51' E 031°58'0 0.0
2018-Jun-15 20:47N 46°51' E 031°58'0 0.0
2018-Jun-15 20:29N 46°51' E 031°58'0 0.0
2018-Jun-15 19:59N 46°51' E 031°58'0 0.0
2018-Jun-15 19:29N 46°51' E 031°58'0 0.0
2018-Jun-15 18:59N 46°51' E 031°58'0 0.0
2018-Jun-15 18:29N 46°51' E 031°58'0 0.0
2018-Jun-15 17:59N 46°51' E 031°58'0 0.0
2018-Jun-15 17:26N 46°51' E 031°58'0 0.0
2018-Jun-15 16:59N 46°51' E 031°58'0 0.0
2018-Jun-15 16:29N 46°51' E 031°58'0 0.0
2018-Jun-15 15:59N 46°51' E 031°58'0 0.0
2018-Jun-15 15:29N 46°51' E 031°58'556918309.0
2018-Jun-15 15:11N 25°44' W 080°09'556928437.4
2018-Jun-15 14:59N 46°51' E 031°58'5569101254.4
2018-Jun-15 14:56N 25°44' W 080°09'556912514.6
2018-Jun-15 14:29N 46°51' E 031°58'556936058.2
2018-Jun-15 14:20N 25°44' W 080°09'82325117.7
2018-Jun-15 14:18N 29°33' W 095°02'607719429.9
2018-Jun-15 13:59N 46°51' E 031°58'556921863.0
2018-Jun-15 13:44N 25°44' W 080°09'556922704.8
2018-Jun-15 13:29N 46°51' E 031°58'5569102287.6
2018-Jun-15 13:26N 25°44' W 080°09'556912499.0
2018-Jun-15 12:59N 46°51' E 031°58'55691179316.1
2018-Jun-15 12:59N 25°44' W 080°09'0 0.0
2018-Jun-15 12:29N 25°44' W 080°09'5569122246.2
2018-Jun-15 12:26N 46°51' E 031°58'0 0.0
2018-Jun-15 11:59N 46°51' E 031°58'556936058.2
2018-Jun-15 11:50N 25°44' W 080°09'556916991.0
2018-Jun-15 11:30N 46°51' E 031°59'556945984.9
2018-Jun-15 11:23N 25°44' W 080°09'556914423.3
2018-Jun-15 11:00N 46°51' E 031°58'556926003.1
2018-Jun-15 10:47N 25°44' W 080°09'8233293.2
2018-Jun-15 10:32N 29°33' W 095°02'6077169597.2
2018-Jun-15 10:30N 46°51' E 031°58'5569393105.4
2018-Jun-15 10:29N 25°44' W 080°09'556911456.2
2018-Jun-15 10:00N 46°51' E 031°58'5569393105.0
2018-Jun-15 09:59N 25°44' W 080°09'556910398.5
2018-Jun-15 09:27N 46°51' E 031°58'556921059.2
2018-Jun-15 09:11N 25°44' W 080°09'556930012.5
2018-Jun-15 09:00N 46°51' E 031°58'556948543.3
2018-Jun-15 08:53N 25°44' W 080°09'556914454.5
2018-Jun-15 08:30N 46°51' E 031°58'5569385545.7
2018-Jun-15 08:29N 25°44' W 080°09'556911469.3
2018-Jun-15 08:00N 46°51' E 031°58'5569400967.5
2018-Jun-15 07:59N 25°44' W 080°09'556911456.2
2018-Jun-15 07:30N 46°51' E 031°58'5569400967.5
2018-Jun-15 07:29N 25°44' W 080°09'556911456.2
2018-Jun-15 07:00N 46°51' E 031°58'0 0.0
2018-Jun-15 06:24N 46°51' E 031°58'5569400967.5
2018-Jun-15 06:23N 25°44' W 080°09'556914423.3
2018-Jun-15 06:00N 46°51' E 031°58'556949018.0
2018-Jun-15 05:53N 25°44' W 080°09'82312196.8
2018-Jun-15 05:49N 29°33' W 095°02'607719057.5
2018-Jun-15 05:30N 46°51' E 031°58'5569400967.5
2018-Jun-15 05:29N 25°44' W 080°09'8235800.2
2018-Jun-15 05:20N 29°33' W 095°02'8232302.9
2018-Jun-15 04:59N 25°44' W 080°09'0 0.0
2018-Jun-15 04:23N 25°44' W 080°09'5569153041.0
2018-Jun-15 04:21N 46°51' E 031°58'556915315.8
2018-Jun-15 03:59N 25°44' W 080°09'5569151881.6
2018-Jun-15 03:57N 46°51' E 031°58'0 0.0
2018-Jun-15 03:30N 46°51' E 031°58'556926070.7
2018-Jun-15 03:17N 25°44' W 080°09'556919445.6
2018-Jun-15 03:00N 46°51' E 031°58'5569400967.5
2018-Jun-15 02:59N 25°44' W 080°09'556911456.2
2018-Jun-15 02:30N 46°51' E 031°58'5569417674.5
2018-Jun-15 02:29N 25°44' W 080°09'556911443.1
2018-Jun-15 02:00N 46°51' E 031°58'556926104.6
2018-Jun-15 01:47N 25°44' W 080°09'556919407.9
2018-Jun-15 01:30N 46°51' E 031°58'556913500.6
2018-Jun-15 01:05N 25°44' W 080°09'556963645.6
2018-Jun-15 01:00N 46°51' E 031°58'5569426560.6
2018-Jun-15 00:59N 25°44' W 080°09'95013463.8
2018-Jun-15 00:55N 40°43' W 074°03'460711072.2
2018-Jun-15 00:30N 46°51' E 031°58'5569417674.5
2018-Jun-15 00:29N 25°44' W 080°09'0 0.0
2018-Jun-14 23:59N 25°44' W 080°09'556963444.2
2018-Jun-14 23:54N 46°51' E 031°58'0 0.0
2018-Jun-14 23:30N 46°51' E 031°58'5569435834.2
2018-Jun-14 23:29N 25°44' W 080°09'556911430.1
2018-Jun-14 23:00N 46°51' E 031°58'5569426561.2
2018-Jun-14 22:59N 25°44' W 080°09'556911430.1
2018-Jun-14 22:30N 46°51' E 031°58'5569435834.2
2018-Jun-14 22:29N 25°44' W 080°09'556911436.6
2018-Jun-14 22:00N 46°51' E 031°58'5569435834.2
2018-Jun-14 21:59N 25°44' W 080°09'9511992.5
2018-Jun-14 21:30N 40°44' W 074°01'4605460544.2
2018-Jun-14 21:30N 46°51' E 031°58'5569445519.4
2018-Jun-14 21:29N 25°44' W 080°09'9501954.2
2018-Jun-14 21:00N 40°43' W 074°03'46075528714.3
2018-Jun-14 21:00N 46°51' E 031°58'556949258.9
2018-Jun-14 20:53N 25°44' W 080°09'556914371.6
2018-Jun-14 20:30N 46°51' E 031°58'5569445519.4
2018-Jun-14 20:29N 25°44' W 080°09'556911430.1
2018-Jun-14 20:00N 46°51' E 031°58'5569466240.9
2018-Jun-14 19:59N 25°44' W 080°09'556911410.6
2018-Jun-14 19:30N 46°51' E 031°58'5569455644.5
2018-Jun-14 19:29N 25°44' W 080°09'556911417.1
2018-Jun-14 19:00N 46°51' E 031°58'0 0.0
2018-Jun-14 18:30N 46°51' E 031°58'0 0.0
2018-Jun-14 18:00N 46°51' E 031°58'556917836.6
2018-Jun-14 17:41N 25°44' W 080°09'556929613.5
2018-Jun-14 17:30N 46°51' E 031°58'556950120.9
2018-Jun-14 17:23N 25°44' W 080°09'556914330.5
2018-Jun-14 17:00N 46°51' E 031°58'0 0.0
2018-Jun-14 16:30N 46°51' E 031°58'556921237.7
2018-Jun-14 16:14N 25°44' W 080°09'556923421.0
2018-Jun-14 16:00N 46°51' E 031°58'5569466241.3
2018-Jun-14 15:59N 25°44' W 080°09'556911404.1
2018-Jun-14 15:30N 46°51' E 031°58'556949747.8
2018-Jun-14 15:23N 25°44' W 080°09'556914361.3
2018-Jun-14 15:00N 46°51' E 031°58'556990308.0
2018-Jun-14 14:56N 25°44' W 080°09'556912704.9
2018-Jun-14 14:30N 46°51' E 031°58'556934447.4
2018-Jun-14 14:20N 25°44' W 080°09'556916460.1
2018-Jun-14 14:00N 46°51' E 031°58'5569477342.2
2018-Jun-14 13:59N 25°44' W 080°09'122915683.7
2018-Jun-14 13:54N 45°29' W 073°32'438510694.4
2018-Jun-14 13:30N 46°51' E 031°58'556913527.9
2018-Jun-14 13:05N 25°44' W 080°09'556963045.2
2018-Jun-14 13:00N 46°51' E 031°58'0 0.0
2018-Jun-14 12:30N 46°51' E 031°58'0 0.0
2018-Jun-14 12:00N 46°51' E 031°58'0 0.0
2018-Jun-14 11:30N 46°51' E 031°58'556921350.8
2018-Jun-14 11:14N 25°44' W 080°09'556923312.1
2018-Jun-14 11:00N 46°51' E 031°58'556949995.9
2018-Jun-14 10:53N 25°44' W 080°09'8232507.5
2018-Jun-14 10:33N 29°33' W 095°02'6077100820.6
2018-Jun-14 10:30N 46°51' E 031°58'556926379.4
2018-Jun-14 10:17N 25°44' W 080°09'823269443.8
2018-Jun-14 10:17N 29°33' W 095°02'607721261.5
2018-Jun-14 10:00N 46°51' E 031°58'0 0.0
2018-Jun-14 09:30N 46°51' E 031°58'556913546.2
2018-Jun-14 09:05N 25°44' W 080°09'556943024.1
2018-Jun-14 08:57N 46°51' E 031°59'556913251.3
2018-Jun-14 08:32N 25°44' W 080°09'5569177419.2
2018-Jun-14 08:30N 46°51' E 031°58'556981167.5
2018-Jun-14 08:26N 25°44' W 080°09'8232568.4
2018-Jun-14 08:07N 29°33' W 095°02'607754832.3
2018-Jun-14 08:00N 46°51' E 031°58'0 0.0
2018-Jun-14 07:27N 46°51' E 031°58'556932974.3
2018-Jun-14 07:17N 25°44' W 080°09'556919791.1
2018-Jun-14 07:00N 46°51' E 031°58'556947172.6
2018-Jun-14 06:53N 25°44' W 080°09'556912892.8
2018-Jun-14 06:27N 46°51' E 031°58'556933083.1
2018-Jun-14 06:17N 25°44' W 080°09'82313350.7
2018-Jun-14 06:14N 29°33' W 095°02'607727623.8
2018-Jun-14 06:00N 46°51' E 031°58'60771151477.1
2018-Jun-14 06:00N 29°33' W 095°02'0 0.0
2018-Jun-14 05:30N 29°33' W 095°02'607764537.0
2018-Jun-14 05:24N 46°51' E 031°58'423428019.9
2018-Jun-14 05:15N 46°50' W 071°12'13385013.7
2018-Jun-14 04:59N 25°44' W 080°09'13385749.6
2018-Jun-14 04:45N 46°50' W 071°12'423412136.0
2018-Jun-14 04:24N 46°51' E 031°58'5569303763.2
2018-Jun-14 04:23N 25°44' W 080°09'0 0.0
2018-Jun-14 03:59N 25°44' W 080°09'0 0.0
2018-Jun-14 03:29N 25°44' W 080°09'0 0.0
2018-Jun-14 02:59N 25°44' W 080°09'556930561.5
2018-Jun-14 02:48N 46°51' E 031°58'0 0.0
2018-Jun-14 02:27N 46°51' E 031°58'5569313255.9
2018-Jun-14 02:26N 25°44' W 080°09'556912876.3
2018-Jun-14 02:00N 46°51' E 031°58'5569318228.2
2018-Jun-14 01:59N 25°44' W 080°09'556911548.6
2018-Jun-14 01:30N 46°51' E 031°58'556933247.7
2018-Jun-14 01:20N 25°44' W 080°09'556916734.9
2018-Jun-14 01:00N 46°51' E 031°58'5569318228.2
2018-Jun-14 00:59N 25°44' W 080°09'556911542.0
2018-Jun-14 00:30N 46°51' E 031°58'5569318228.2
2018-Jun-14 00:29N 25°44' W 080°09'556911548.6
2018-Jun-14 00:00N 46°51' E 031°58'556982503.6
2018-Jun-13 23:56N 25°44' W 080°09'556912868.0
2018-Jun-13 23:30N 46°51' E 031°58'5569323360.9
2018-Jun-13 23:29N 25°44' W 080°09'556911535.3
2018-Jun-13 23:00N 46°51' E 031°58'21329.5
2018-Jun-13 22:56N 46°38' E 031°35'2148.1
2018-Jun-13 22:30N 46°51' E 031°58'21332.4
2018-Jun-13 22:27N 46°38' E 031°35'2148.0
2018-Jun-13 22:00N 46°51' E 031°58'0 0.0
2018-Jun-13 21:30N 46°51' E 031°58'0 0.0
2018-Jun-13 20:57N 46°51' E 031°58'0 0.0
2018-Jun-13 20:30N 46°51' E 031°58'0 0.2
2018-Jun-13 19:59N 46°51' E 031°58'2138.2
2018-Jun-13 19:26N 46°38' E 031°35'21144.6
2018-Jun-13 19:18N 46°51' E 031°58'0 0.0
2018-Jun-13 18:51N 46°51' E 031°58'0 0.0
2018-Jun-13 18:30N 46°51' E 031°58'0 0.0
2018-Jun-13 18:00N 46°51' E 031°58'556926838.5
2018-Jun-13 17:47N 25°44' W 080°09'555555244.2
2018-Jun-13 17:41N 46°38' E 031°35'21109.2
2018-Jun-13 17:30N 46°51' E 031°58'212695.2
2018-Jun-13 17:29N 46°38' E 031°35'555518517.1
2018-Jun-13 17:11N 25°44' W 080°09'556928971.6
2018-Jun-13 17:00N 46°51' E 031°58'556921603.9
2018-Jun-13 16:44N 25°44' W 080°09'556922991.3
2018-Jun-13 16:30N 46°51' E 031°58'556996386.4
2018-Jun-13 16:26N 25°44' W 080°09'556912593.2
2018-Jun-13 16:00N 46°51' E 031°58'556952073.7
2018-Jun-13 15:53N 25°44' W 080°09'556914168.5
2018-Jun-13 15:30N 46°51' E 031°58'5569742532.4
2018-Jun-13 15:29N 25°44' W 080°09'556911307.6
2018-Jun-13 15:00N 46°51' E 031°58'5569771091.3
2018-Jun-13 14:59N 25°44' W 080°09'556911301.2
2018-Jun-13 14:30N 46°51' E 031°58'556951938.8
2018-Jun-13 14:23N 25°44' W 080°09'556914178.5
2018-Jun-13 14:00N 46°51' E 031°58'556926874.5
2018-Jun-13 13:47N 25°44' W 080°09'556919021.2
2018-Jun-13 13:30N 46°51' E 031°58'556951804.6
2018-Jun-13 13:23N 25°44' W 080°09'556914188.5
2018-Jun-13 13:00N 46°51' E 031°58'556997322.2
2018-Jun-13 12:56N 25°44' W 080°09'556912585.3
2018-Jun-13 12:30N 46°51' E 031°58'556926910.6
2018-Jun-13 12:17N 25°44' W 080°09'556918985.2
2018-Jun-13 12:00N 46°51' E 031°58'5569911289.7
2018-Jun-13 11:59N 25°44' W 080°09'556911275.8
2018-Jun-13 11:30N 46°51' E 031°58'5569954684.5
2018-Jun-13 11:29N 25°44' W 080°09'0 0.0
2018-Jun-13 10:50N 25°44' W 080°09'126825644.1
2018-Jun-13 10:47N 46°04' W 073°04'312.2
2018-Jun-13 10:30N 46°03' W 073°09'12663991.5
2018-Jun-13 10:11N 25°44' W 080°09'556959667.8
2018-Jun-13 10:06N 46°51' E 031°58'435249265.1
2018-Jun-13 10:00N 45°58' W 073°12'4352373006.9
2018-Jun-13 10:00N 46°51' E 031°58'5569835348.9
2018-Jun-13 09:59N 25°44' W 080°09'12542596.8
2018-Jun-13 09:30N 45°52' W 073°16'4358412900.2
2018-Jun-13 09:30N 46°51' E 031°58'5569911289.7
2018-Jun-13 09:29N 25°44' W 080°09'12472574.9
2018-Jun-13 09:00N 45°46' W 073°22'4366462307.7
2018-Jun-13 09:00N 46°51' E 031°58'556998276.3
2018-Jun-13 08:56N 25°44' W 080°09'556912561.6
2018-Jun-13 08:30N 46°51' E 031°58'4374393645.7
2018-Jun-13 08:29N 45°40' W 073°27'124113020.5
2018-Jun-13 08:23N 25°44' W 080°09'0 0.0
2018-Jun-13 07:59N 25°44' W 080°09'5569128515.1
2018-Jun-13 07:57N 46°51' E 031°58'0 0.0
2018-Jun-13 07:30N 46°51' E 031°58'556999249.4
2018-Jun-13 07:26N 25°44' W 080°09'12304088.4
2018-Jun-13 07:08N 45°30' W 073°31'0 2.2
2018-Jun-13 07:00N 45°30' W 073°31'4384375736.9
2018-Jun-13 07:00N 46°51' E 031°58'556998760.5
2018-Jun-13 06:56N 25°44' W 080°09'12292829.9
2018-Jun-13 06:30N 45°30' W 073°31'122979036.1
2018-Jun-13 06:29N 25°44' W 080°09'556959490.7
2018-Jun-13 06:24N 46°51' E 031°58'438411305.4
2018-Jun-13 06:01N 45°29' W 073°31'4384358688.2
2018-Jun-13 06:00N 46°51' E 031°58'5569100241.9
2018-Jun-13 05:56N 25°44' W 080°09'12272838.4
2018-Jun-13 05:31N 45°27' W 073°30'4385358778.5
2018-Jun-13 05:30N 46°51' E 031°58'5569911289.7
2018-Jun-13 05:29N 25°44' W 080°09'12242541.9
2018-Jun-13 05:01N 45°24' W 073°32'122466782.9
2018-Jun-13 04:59N 25°44' W 080°09'5569127696.7
2018-Jun-13 04:57N 46°51' E 031°58'438910019.8
2018-Jun-13 04:31N 45°24' W 073°34'4389367471.9
2018-Jun-13 04:30N 46°51' E 031°58'5569911289.7
2018-Jun-13 04:29N 25°44' W 080°09'12242496.2
2018-Jun-13 04:00N 45°24' W 073°35'43901128765.2
2018-Jun-13 04:00N 46°51' E 031°58'5569954684.5
2018-Jun-13 03:59N 25°44' W 080°09'556911269.5
2018-Jun-13 03:30N 46°51' E 031°58'4392510039.3
2018-Jun-13 03:29N 45°24' W 073°38'12238305.9
2018-Jun-13 03:20N 25°44' W 080°09'12233665.6
2018-Jun-13 03:00N 45°25' W 073°41'439472561.0
2018-Jun-13 02:57N 46°51' E 031°58'5569100745.6
2018-Jun-13 02:53N 25°44' W 080°09'  

Dump ship's entire track history